Warning: Javascript must be enabled to use all the features on this page!


Page Loading - Please Wait...

Click to hideNews Bulletins

Streamflow Measurements for the Nation


USGS 11337190 SAN JOAQUIN R A JERSEY POINT CA


Contra Costa County, California
Hydrologic Unit Code 18040003
Latitude  38°03'08", Longitude 121°41'16" NAD27
Gage datum 0 feet above NAVD88
Output formats
HTML table with channel data
HTML table without channel data
Tab-separated data with channel data
Tab-separated data without channel data
Graph of data
Reselect output format
Meas.
Number
  Date       Time Time
Datum
Measurement
Used?
  Who Measuring
Agency
Stream
flow
(ft3/s)
Gage
Height
(ft)
GH
Change
(ft)
Meas.
Duration
(hr)
Meas.
Rated
  Control Flow
Adjust.
Code
 
17212022-08-24 09:56:27PSTYesJEHATFIELD/EUSGS892004.26 Poor NONE
17202022-08-24 09:50:35PSTYesJEHATFIELD/EUSGS956004.21 Poor NONE
17192022-08-24 09:44:39PSTYesJEHATFIELD/EUSGS986004.16 Poor NONE
17182022-08-24 09:38:46PSTYesJEHATFIELD/EUSGS1020004.13 Poor NONE
17172022-08-24 09:33:13PSTYesJEHATFIELD/EUSGS1060004.08 Poor NONE
17162022-08-24 09:27:09PSTYesJEHATFIELD/EUSGS1100004.08 Poor NONE
17152022-06-22 10:41:20PSTYesCCOLLEY/JEHAUSGS-966006.27 Poor NONE
17142022-06-22 10:32:32PSTYesCCOLLEY/JEHAUSGS-986006.27 Poor NONE
17132022-06-22 10:23:54PSTYesCCOLLEY/JEHAUSGS-1020006.25 Poor NONE
17122022-06-22 10:14:58PSTYesCCOLLEY/JEHAUSGS-1030006.22 Poor NONE
17112022-06-22 10:04:25PSTYesCCOLLEY/JEHAUSGS-1020006.22 Poor NONE
17102022-06-22 09:54:46PSTYesCCOLLEY/JEHAUSGS-1050006.20 Poor NONE
17092022-05-04 11:47:24PSTYesJEHATFIELD/BUSGS1280003.72 Poor NONE
17082022-05-04 11:41:40PSTYesJEHATFIELD/BUSGS1270003.76 Poor NONE
17072022-05-04 11:36:06PSTYesJEHATFIELD/BUSGS1280003.81 Poor NONE
17062022-05-04 11:30:25PSTYesJEHATFIELD/BUSGS1290003.84 Poor NONE
17052022-05-04 11:24PSTYesJEHATFIELD/BUSGS1300003.89 Poor NONE
17042022-05-04 11:17:35PSTYesJEHATFIELD/BUSGS1300003.96 Poor NONE
17032021-12-28 10:34:07PSTYesJEHATFIELD/MUSGS-1170007.55 Poor NONE
17022021-12-28 10:27:53PSTYesJEHATFIELD/MUSGS-1190007.54 Poor NONE
17012021-12-08 11:45:47PSTYesJEHATFIELD/MUSGS709003.61 Poor NONE
17002021-12-08 11:40:10PSTYesJEHATFIELD/MUSGS669003.63 Poor NONE
16992021-12-08 11:34:30PSTYesJEHATFIELD/MUSGS637003.65 Poor NONE
16982021-12-08 11:28:54PSTYesJEHATFIELD/MUSGS607003.67 Poor NONE
16972021-12-08 11:21:37PSTYesJEHATFIELD/MUSGS542003.70 Poor NONE
16962021-12-08 11:16:02PSTYesJEHATFIELD/MUSGS508003.73 Poor NONE
16952021-11-03 10:31:26PSTYesJEHATFIELD/EUSGS-579005.82 Poor NONE
16942021-11-03 10:25:08PSTYesJEHATFIELD/EUSGS-496005.74 Poor NONE
16932021-11-03 10:17:06PSTYesJEHATFIELD/EUSGS-408005.64 Poor NONE
16922021-11-03 10:09:05PSTYesJEHATFIELD/EUSGS-210005.52 Poor NONE
16912021-11-03 09:59:35PSTYesJEHATFIELD/EUSGS-113005.37 Poor NONE
16902021-11-03 09:50:38PSTYesJEHATFIELD/EUSGS94605.19 Poor NONE
16892021-08-18 11:27:26PSTYesJEHATFIELD/EUSGS-1100004.76 Poor NONE
16882021-08-18 11:22:17PSTYesJEHATFIELD/EUSGS-1090004.74 Poor NONE
16872021-08-18 11:17:08PSTYesJEHATFIELD/EUSGS-1080004.72 Poor NONE
16862021-08-18 11:11:51PSTYesJEHATFIELD/EUSGS-1030004.70 Poor NONE
16852021-08-18 11:06:39PSTYesJEHATFIELD/EUSGS-1020004.67 Poor NONE
16842021-08-18 11:01:33PSTYesJEHATFIELD/EUSGS-989004.66 Poor NONE
16832021-03-25 09:28:45PSTYesjehatfield/eUSGS-766004.41 Poor NONE
16822021-03-25 09:22:53PSTYesjehatfield/eUSGS-656004.34 Poor NONE
16812021-02-11 10:54:07PSTYesJEH/EBDUSGS-159004.03 Poor NONE
16802021-02-11 10:48:25PSTYesJEH/EBDUSGS-23903.96 Poor NONE
16792021-02-11 10:42:35PSTYesJEH/EBDUSGS75503.89 Poor NONE
16782021-02-11 10:36:32PSTYesJEH/EBDUSGS198003.82 Poor NONE
16772021-02-11 10:29:56PSTYesJEH/EBDUSGS294003.74 Poor NONE
16762021-02-11 10:22:53PSTYesJEH/EBDUSGS419003.66 Poor NONE
16752020-12-03 12:04:45PSTYesJEH/EBDUSGS146004.00 Poor NONE
16742020-12-03 11:52:53PSTYesJEH/EBDUSGS277003.85 Poor NONE
16732020-12-03 11:42:07PSTYesJEH/EBDUSGS347003.88 Poor NONE
16722020-12-03 11:32:02PSTYesJEH/EBDUSGS420003.81 Poor NONE
16712020-12-03 11:21:51PSTYesJEH/EBDUSGS511003.78 Poor NONE
16702020-12-03 11:12:06PSTYesJEH/EBDUSGS545003.75 Poor NONE
16692020-09-17 11:33:01PSTYesJEH/EBDUSGS350003.16 Poor NONE
16682020-09-17 11:23:13PSTYesJEH/EBDUSGS530003.01 Poor NONE
16672020-09-17 11:12:42PSTYesJEH/EBDUSGS709002.85 Poor NONE
16662020-09-17 10:59:06PSTYesJEH/EBDUSGS836002.70 Poor NONE
16652020-09-17 10:44:39PSTYesJEH/EBDUSGS1030002.59 Poor NONE
16642020-09-17 10:32:12PSTYesJEH/EBDUSGS1130002.55 Poor NONE
16632020-05-27 10:05:16PSTYesNVB/ACUSGS1480004.05 Poor NONE
16622020-05-27 09:54:36PSTYesNVB/ACUSGS1440004.16 Poor NONE
16612020-05-27 09:44:03PSTYesNVB/ACUSGS1450004.25 Poor NONE
16602020-05-27 09:32:19PSTYesNVB/ACUSGS1410004.36 Poor NONE
16592020-05-27 09:18:25PSTYesNVB/ACUSGS1410004.47 Poor NONE
16582020-05-27 09:06:53PSTYesNVB/ACUSGS1320004.57 Poor NONE
16572020-02-20 13:36:24PSTYesJH/ACUSGS-1100005.80 Poor NONE
16562020-02-20 13:28:40PSTYesJH/ACUSGS-1140005.80 Poor NONE
16552020-02-20 13:20:39PSTYesJH/ACUSGS-1210005.78 Poor NONE
16542020-02-20 13:10:43PSTYesJH/ACUSGS-1250005.76 Poor NONE
16532020-02-20 13:01:36PSTYesJH/ACUSGS-1290005.72 Poor NONE
16522020-02-20 12:52:54PSTYesJH/ACUSGS-1340005.69 Poor NONE
16512019-12-11 10:29:26PSTYesJH/ZHUSGS-632004.64 Poor NONE
16502019-12-11 10:19:50PSTYesJH/ZHUSGS-487004.55 Poor NONE
16492019-12-11 10:09:47PSTYesJH/ZHUSGS-355004.47 Poor NONE
16482019-12-11 09:59:59PSTYesJH/ZHUSGS-146004.36 Poor NONE
16472019-12-11 09:50:19PSTYesJH/ZHUSGS-9814.25 Poor NONE
16462019-12-11 09:41:09PSTYesJH/ZHUSGS166004.17 Poor NONE
16452019-10-30 13:13:27PSTYesJH/ZHUSGS-796004.43 Poor NONE
16442019-10-30 13:05PSTYesJH/ZHUSGS-519004.32 Poor NONE
16432019-10-30 12:56:53PSTYesJH/ZHUSGS-441004.22 Poor NONE
16422019-10-30 12:47:03PSTYesJH/ZHUSGS-343004.10 Poor NONE
16412019-10-30 12:37:10PSTYesJH/ZHUSGS-71303.98 Poor NONE
16402019-10-30 12:27:21PSTYesJH/ZHUSGS91603.84 Poor NONE
16392019-09-10 12:54:41PSTYesJH/MI/ZHUSGS-1410004.60 Good NONE
16382019-09-10 12:46:11PSTYesJH/MI/ZHUSGS-1430004.54 Good NONE
16372019-09-10 12:38:47PSTYesJH/MI/ZHUSGS-1410004.50 Good NONE
16362019-09-10 12:30:44PSTYesJH/MI/ZHUSGS-1420004.45 Good NONE
16352019-09-10 12:22:13PSTYesJH/MI/ZHUSGS-1390004.40 Good NONE
16342019-09-10 12:13:43PSTYesJH/MI/ZHUSGS-1360004.35 Good NONE
16332019-05-20 14:54:22PSTYesZH,JHUSGS-993004.45 Good NONE
16322019-05-20 14:48:41PSTYesZH,JHUSGS-919004.41 Good NONE
16312019-05-20 14:42:56PSTYesZH,JHUSGS-849004.34 Good NONE
16302019-05-20 14:37:25PSTYesZH,JHUSGS-810004.29 Good NONE
16292019-05-20 14:32:07PSTYesZH,JHUSGS-651004.23 Good NONE
16282019-05-20 14:26:50PSTYesZH,JHUSGS-604004.18 Good NONE
16272019-03-21 10:27:08PSTYesJH/ZHUSGS1370003.61 Good NONE
16262019-03-21 10:12:49PSTYesJH/ZHUSGS1460003.65 Good NONE
16252019-03-21 09:58:52PSTYesJH/ZHUSGS1470003.72 Good NONE
16242019-03-21 09:47:03PSTYesJH/ZHUSGS1510003.78 Good NONE
16232019-03-21 09:37:06PSTYesJH/ZHUSGS1560003.84 Good NONE
16222019-03-21 09:28:17PSTYesJH/ZHUSGS1550003.91 Good NONE
16212019-02-22 10:14:55PSTYesJH/MPUSGS1480004.21 Good NONE
16202019-02-22 10:09:50PSTYesJH/MPUSGS1490004.25 Good NONE
16192019-02-22 10:04:46PSTYesJH/MPUSGS1500004.29 Good NONE
16182019-02-22 09:59:13PSTYesJH/MPUSGS1480004.33 Good NONE
16172019-02-22 09:53:41PSTYesJH/MPUSGS1510004.37 Good NONE
16162019-02-22 09:48:22PSTYesJH/MPUSGS1470004.42 Good NONE
16152018-12-06 10:20:24PSTYesJH/ACUSGS-322004.31 Good NONE
16142018-12-06 10:12:31PSTYesJH/ACUSGS-180004.22 Good NONE
16132018-12-06 10:04:29PSTYesJH/ACUSGS-38004.13 Good NONE
16122018-12-06 09:57:08PSTYesJH/ACUSGS105004.05 Good NONE
16112018-12-06 09:49:56PSTYesJH/ACUSGS221003.97 Good NONE
16102018-12-06 09:24:11PSTYesJH/ACUSGS340003.90 Good NONE
16092018-09-19 10:21:21PSTYesJH/ACUSGS-1210003.91 Good NONE
16082018-09-19 10:14:15PSTYesJH/ACUSGS-1180003.87 Good NONE
16072018-09-19 10:07:24PSTYesJH/ACUSGS-1140003.83 Good NONE
16062018-09-19 09:53PSTYesJH/ACUSGS-1030003.75 Good NONE
16052018-09-19 09:40:26PSTYesJH/ACUSGS-975003.67 Good NONE
16042018-09-19 09:30:04PSTYesJH/ACUSGS-877003.60 Good NONE
16032018-08-06 13:29:40PSTYesJH/MIUSGS-170004.27 Good NONE
16022018-08-06 13:22:36PSTYesJH/MIUSGS-261004.31 Good NONE
16012018-08-06 13:15:06PSTYesJH/MIUSGS-328004.34 Good NONE
16002018-08-06 13:08:40PSTYesJH/MIUSGS-404004.36 Good NONE
15992018-08-06 13:01:47PSTYesJH/MIUSGS-477004.39 Good NONE
15982018-08-06 12:37:31PSTYesJH/MIUSGS-543004.40 Good NONE
15972018-06-06 09:29:27PSTYesJH/RJUSGS-345004.58 Unspecified NONE
15962018-06-06 09:19:28PSTYesJH/RJUSGS-450004.62 Unspecified NONE
15952018-06-06 09:08:55PSTYesJH/RJUSGS-516004.64 Unspecified NONE
15942018-06-06 08:59:05PSTYesJH/RJUSGS-581004.66 Unspecified NONE
15932018-06-06 08:48:40PSTYesJH/RJUSGS-633004.67 Unspecified NONE
15922018-06-06 08:39:05PSTYesJH/RJUSGS-689004.68 Unspecified NONE
15912018-04-18 13:35:35PSTYesNS/CHUSGS643002.56 Good NONE
15902018-04-18 13:27:27PSTYesNS/CHUSGS783002.45 Good NONE
15892018-04-18 13:19:54PSTYesNS/CHUSGS872002.37 Good NONE
15882018-04-18 13:12:57PSTYesNS/CHUSGS959002.30 Good NONE
15872018-04-18 13:04:34PSTYesNS/CHUSGS1030002.23 Good NONE
15862018-04-18 12:54:44PSTYesNS/CHUSGS1120002.18 Good NONE
15852018-02-28 11:44:14PSTYesNS/CHUSGS-1550004.75 Good NONE
15842018-02-28 11:36:26PSTYesNS/CHUSGS-1520004.69 Good NONE
15832018-02-28 11:28:44PSTYesNS/CHUSGS-1450004.63 Good NONE
15822018-02-28 11:21:31PSTYesNS/CHUSGS-1400004.57 Good NONE
15812018-02-28 11:14:34PSTYesNS/CHUSGS-1380004.54 Good NONE
15802018-02-28 11:08:21PSTYesNS/CHUSGS-1300004.49 Good NONE
15792017-12-12 11:21:57PSTYesTV, CH, CCUSGS-1310005.01 Good NONE
15782017-12-12 11:09:45PSTYesTV, CH, CCUSGS-1390004.95 Good NONE
15772017-12-12 10:57:44PSTYesTV, CH, CCUSGS-1400004.86 Good NONE
15762017-12-12 10:47:44PSTYesTV, CH, CCUSGS-1440004.80 Good NONE
15752017-12-12 10:37:07PSTYesTV, CH, CCUSGS-1450004.73 Good NONE
15742017-12-12 10:25:31PSTYesTV, CH, CCUSGS-1490004.65 Good NONE
15732017-10-25 12:47:43PSTYesNS/CHUSGS685003.98 Good NONE
15722017-10-25 12:37:04PSTYesNS/CHUSGS687003.99 Good NONE
15712017-10-25 12:26:14PSTYesNS/CHUSGS695003.99 Good NONE
15702017-10-25 12:14:02PSTYesNS/CHUSGS698004.00 Good NONE
15692017-10-25 12:04:17PSTYesNS/CHUSGS682004.02 Good NONE
15682017-10-25 11:56:15PSTYesNS/CHUSGS656004.03 Good NONE
15672017-10-25 11:46:43PSTYesNS/CHUSGS638004.05 Good NONE
15662017-10-25 11:37:27PSTYesNS/CHUSGS605004.08 Good NONE
15652017-08-29 11:51PSTYesBS/RJUSGS-208005.02 Unspecified NONE
15642017-08-29 11:41:30PSTYesBS/RJUSGS-298005.04 Unspecified NONE
15632017-08-29 11:31:30PSTYesBS/RJUSGS-386005.07 Unspecified NONE
15622017-08-29 11:21PSTYesBS/RJUSGS-478005.10 Unspecified NONE
15612017-08-29 11:10PSTYesBS/RJUSGS-573005.10 Unspecified NONE
15602017-08-29 10:59PSTYesBS/RJUSGS-647005.10 Unspecified NONE
15592017-05-22 13:36:08PSTYesNS/CHUSGS-634005.12 Good NONE
15582017-05-22 13:29:08PSTYesNS/CHUSGS-692005.13 Good NONE
15572017-05-22 13:21:18PSTYesNS/CHUSGS-766005.14 Good NONE
15562017-05-22 13:11:34PSTYesNS/CHUSGS-869005.15 Good NONE
15552017-05-22 13:02:14PSTYesNS/CHUSGS-927005.14 Good NONE
15542017-05-22 12:54:29PSTYesNS/CHUSGS-995005.13 Good NONE
15532017-03-02 10:36:17PSTYesBS/RJUSGS1790004.92 Good NONE
15522017-03-02 10:27:05PSTYesBS/RJUSGS1670005.00 Good NONE
15512017-03-02 10:17:51PSTYesBS/RJUSGS1770005.08 Good NONE
15502017-03-02 10:08:01PSTYesBS/RJUSGS1630005.15 Good NONE
15492017-03-02 09:59:02PSTYesBS/RJUSGS1730005.22 Good NONE
15482017-03-02 09:49:17PSTYesBS/RJUSGS1580005.30 Good NONE
15472017-02-23 15:20:43PSTYesTV,CHUSGS1450007.12 Fair NONE
15462017-02-23 15:06:41PSTYesTV,CHUSGS1380007.18 Fair NONE
15452017-02-23 14:53:51PSTYesTV,CHUSGS1230007.23 Fair NONE
15442017-02-23 14:39:32PSTYesTV,CHUSGS1070007.28 Fair NONE
15432017-02-23 14:26:07PSTYesTV,CHUSGS931007.33 Fair NONE
15422017-02-23 14:14:29PSTYesTV,CHUSGS782007.37 Fair NONE
15412017-01-17 12:41:42PSTYestv,nvUSGS1390004.95 Good NONE
15402017-01-17 12:30:45PSTYestv,nvUSGS1380005.00 Good NONE
15392017-01-17 12:19:39PSTYestv,nvUSGS1400005.06 Good NONE
15382017-01-17 12:09:17PSTYestv,nvUSGS1400005.12 Good NONE
15372017-01-17 11:59:31PSTYestv,nvUSGS1390005.20 Good NONE
15362017-01-17 11:48:56PSTYestv,nvUSGS1370005.27 Good NONE
15352017-01-17 11:38:56PSTYestv,nvUSGS1360005.31 Good NONE
15342017-01-17 11:30:01PSTYestv,nvUSGS1340005.30 Good NONE
15332016-12-21 11:32:35PSTYesRJ,CHUSGS-605005.64 Good NONE
15322016-12-21 11:19:42PSTYesRJ,CHUSGS-769005.69 Good NONE
15312016-12-21 11:06:48PSTYesRJ,CHUSGS-876005.72 Good NONE
15302016-12-21 10:53:05PSTYesRJ,CHUSGS-1030005.72 Good NONE
15292016-12-21 10:38:36PSTYesRJ,CHUSGS-1120005.72 Good NONE
15282016-12-21 10:25:52PSTYesRJ,CHUSGS-1190005.68 Good NONE
15272016-12-21 10:14:15PSTYesRJ,CHUSGS-1250005.64 Good NONE
15262016-12-21 10:03:34PSTYesRJ,CHUSGS-1310005.60 Good NONE
15252016-11-01 12:17:07PSTYesCH, RJUSGS-473004.36 Good NONE
15242016-11-01 12:02:14PSTYesCH, RJUSGS-178004.21 Good NONE
15232016-11-01 11:50:45PSTYesCH, RJUSGS-10704.09 Good NONE
15222016-11-01 11:40:05PSTYesCH, RJUSGS181003.98 Good NONE
15212016-11-01 11:29:07PSTYesCH, RJUSGS341003.87 Good NONE
15202016-11-01 11:18:33PSTYesCH, RJUSGS485003.77 Good NONE
15192016-07-15 11:32:22PSTYesRJ,CHUSGS-1210004.27 Good NONE
15182016-07-15 11:24:34PSTYesRJ,CHUSGS-1180004.22 Good NONE
15172016-07-15 11:16:31PSTYesRJ,CHUSGS-1180004.20 Good NONE
15162016-07-15 11:07:32PSTYesRJ,CHUSGS-1120004.15 Good NONE
15152016-07-15 10:57:59PSTYesRJ,CHUSGS-1080004.09 Good NONE
15142016-07-15 10:49:09PSTYesRJ,CHUSGS-990004.06 Good NONE
15132016-04-04 14:52:14PSTYesRJ,NDUSGS274004.51 Fair NONE
15122016-04-04 14:40:25PSTYesRJ,NDUSGS49204.62 Poor NONE
15112016-04-04 14:28:08PSTYesRJ,NDUSGS-179004.74 Fair NONE
15102016-04-04 14:14:19PSTYesRJ,NDUSGS-398004.86 Fair NONE
15092016-04-04 14:00:26PSTYesRJ,NDUSGS-620004.96 Fair NONE
15082016-04-04 13:47:45PSTYesRJ,NDUSGS-763005.02 Fair NONE
15072016-01-26 14:49:37PSTYesCH, LKUSGS-1260004.93 Fair NONE
15062016-01-26 14:40:39PSTYesCH, LKUSGS-1210004.90 Fair NONE
15052016-01-26 14:30:11PSTYesCH, LKUSGS-1150004.82 Fair NONE
15042016-01-26 14:19:54PSTYesCH, LKUSGS-1060004.76 Fair NONE
15032016-01-26 11:44:41PSTYesCH, LKUSGS966003.42 Fair NONE
15022016-01-26 11:33:36PSTYesCH, LKUSGS1040003.42 Fair NONE
15012016-01-26 11:22:06PSTYesCH, LKUSGS1080003.44 Fair NONE
15002016-01-26 11:12:07PSTYesCH, LKUSGS1120003.47 Fair NONE
14992015-11-10 14:37:19PSTYesCH, NDUSGS-1100005.44 Good NONE
14982015-11-10 14:25:49PSTYesCH, NDUSGS-1130005.41 Good NONE
14972015-11-10 14:14:44PSTYesCH, NDUSGS-1210005.39 Good NONE
14962015-11-10 14:04:37PSTYesCH, NDUSGS-1270005.35 Good NONE
14952015-11-10 13:53:47PSTYesCH, NDUSGS-1290005.30 Good NONE
14942015-11-10 13:42:13PSTYesCH, NDUSGS-1350005.24 Good NONE
14932015-09-03 11:24:28PSTYesBS,CHUSGS1140003.55 ExcellentClearNONE
14922015-09-03 11:09:41PSTYesBS,CHUSGS1080003.66 ExcellentClearNONE
14912015-09-03 10:57:04PSTYesBS,CHUSGS1060003.74 GoodClearNONE
14902015-09-03 10:43:14PSTYesBS,CHUSGS960003.84 ExcellentClearNONE
14892015-05-19 11:58:54PSTYesAD,CHUSGS1200002.18 Good NONE
14882015-05-19 11:45:43PSTYesAD,CHUSGS1260002.20 Good NONE
14872015-05-19 11:31:51PSTYesAD,CHUSGS1290002.24 Good NONE
14862015-05-19 11:15:38PSTYesAD,CHUSGS1340002.33 Good NONE
14852015-05-19 11:00:08PSTYesAD,CHUSGS1360002.43 Good NONE
14842015-05-19 10:45:47PSTYesAD,CHUSGS1370002.53 Good NONE
14832015-04-10 16:24PSTYesAD/CHUSGS103002.62 UnspecifiedDebrisLightNONE
14822015-04-10 16:05PSTYesAD/CHUSGS352002.46 UnspecifiedDebrisLightNONE
14812015-04-10 15:55PSTYesAD/CHUSGS569002.30 UnspecifiedDebrisLightNONE
14802015-04-10 15:37PSTYesAD/CHUSGS700002.18 UnspecifiedDebrisLightNONE
14792015-04-10 15:27PSTYesAD/CHUSGS855002.10 UnspecifiedDebrisLightNONE
14782015-04-10 15:13PSTYesAD/CHUSGS975002.04 UnspecifiedDebrisLightNONE
14772014-11-03 15:07PSTYesND/KMUSGS646004.48 UnspecifiedUnspecifedNONE
14762014-11-03 14:43PSTYesND/KMUSGS246004.74 UnspecifiedUnspecifedNONE
14752014-11-03 14:24PSTYesND/KMUSGS-112004.96 UnspecifiedUnspecifedNONE
14742014-11-03 14:00PSTYesND/KMUSGS-514005.15 UnspecifiedUnspecifedNONE
14732014-11-03 13:39PSTYesND/KMUSGS-798005.30 UnspecifiedUnspecifedNONE
14722014-11-03 13:22PSTYesND/KMUSGS-1030005.35 UnspecifiedUnspecifedNONE
14712014-11-03 13:07PSTYesND/KMUSGS-1150005.36 UnspecifiedUnspecifedNONE
14702014-11-03 12:47PSTYesND/KMUSGS-1270005.33 UnspecifiedUnspecifedNONE
14692014-11-03 12:30PSTYesND/KMUSGS-1340005.26 UnspecifiedUnspecifedNONE
14682014-11-03 12:09PSTYesND/KMUSGS-1410005.17 UnspecifiedUnspecifedNONE
14672014-10-15 14:17PSTYesDA/NDUSGS1040004.47 UnspecifiedUnspecifedNONE
14662014-10-15 14:03PSTYesDA/NDUSGS1010004.51 UnspecifiedUnspecifedNONE
14652014-10-15 13:49PSTYesDA/NDUSGS1010004.56 UnspecifiedUnspecifedNONE
14642014-10-15 13:39PSTYesDA/NDUSGS963004.61 UnspecifiedUnspecifedNONE
14632014-10-15 13:28PSTYesDA/NDUSGS904004.65 UnspecifiedUnspecifedNONE
14622014-10-15 13:15PSTYesDA/NDUSGS832004.71 UnspecifiedUnspecifedNONE
14612014-10-15 13:04PSTYesDA/NDUSGS750004.78 UnspecifiedUnspecifedNONE
14602014-10-15 12:53PSTYesDA/NDUSGS647004.86 UnspecifiedUnspecifedNONE
14592014-10-15 12:41PSTYesDA/NDUSGS543004.93 UnspecifiedUnspecifedNONE
14582014-10-15 12:27PSTYesDA/NDUSGS389005.03 UnspecifiedUnspecifedNONE
14572014-10-15 12:16PSTYesDA/NDUSGS255005.12 UnspecifiedUnspecifedNONE
14562014-10-15 11:55PSTYesDA/NDUSGS11905.24 UnspecifiedUnspecifedNONE
14552014-10-15 11:43PSTYesDA/NDUSGS-176005.33 UnspecifiedUnspecifedNONE
14542014-10-15 11:30PSTYesDA/NDUSGS-344005.39 UnspecifiedUnspecifedNONE
14532014-10-15 11:12PSTYesDA/NDUSGS-518005.45 UnspecifiedUnspecifedNONE
14522014-10-15 10:59PSTYesDA/NDUSGS-619005.48 UnspecifiedUnspecifedNONE
14512014-10-15 10:47PSTYesDA/NDUSGS-710005.49 UnspecifiedUnspecifedNONE
14502014-10-15 10:31PSTYesDA/NDUSGS-801005.50 UnspecifiedUnspecifedNONE
14492014-08-04 13:25PSTYesYESUSGS86500 Unspecified NONE
14482014-08-04 13:14PSTYesYESUSGS80200 Unspecified NONE
14472014-08-04 12:46PSTYesYESUSGS64800 Unspecified NONE
14462014-08-04 12:31PSTYesYESUSGS57100 Unspecified NONE
14452014-08-04 12:21PSTYesYESUSGS42800 Unspecified NONE
14442014-08-04 12:03PSTYesYESUSGS30400 Unspecified NONE
14432014-08-04 11:52PSTYesYESUSGS9680 Unspecified NONE
14422014-08-04 11:34PSTYesYESUSGS-9460 Unspecified NONE
14412014-08-04 11:24PSTYesYESUSGS-23200 Unspecified NONE
14402014-08-04 11:08PSTYesYESUSGS-34900 Unspecified NONE
14392014-08-04 11:00PSTYesYESUSGS-50300 Unspecified NONE
14382014-08-04 10:51PSTYesYESUSGS-55800 Unspecified NONE
14372014-08-04 10:18PSTYesYESUSGS-81300 Unspecified NONE
14362014-08-04 10:09PSTYesYESUSGS-86100 Unspecified NONE
14352013-12-17 16:24PSTYesYESUSGS-24700 Unspecified NONE
14342013-12-17 16:12PSTYesYESUSGS-43100 Unspecified NONE
14332013-12-17 14:38PSTYesYESUSGS-123000 Unspecified NONE
14322013-12-17 14:29PSTYesYESUSGS-127000 Unspecified NONE
14312013-12-17 14:15PSTYesYESUSGS-129000 Unspecified NONE
14302013-12-17 13:55PSTYesYESUSGS-134000 Unspecified NONE
14292013-12-12 12:25PSTYesYESUSGS-102000 Unspecified NONE
14282013-12-12 12:18PSTYesYESUSGS-105000 Unspecified NONE
14272013-12-12 12:11PSTYesYESUSGS-111000 Unspecified NONE
14262013-12-12 11:58PSTYesYESUSGS-118000 Unspecified NONE
14252013-12-12 11:40PSTYesYESUSGS-128000 Unspecified NONE
14242013-12-12 11:33PSTYesYESUSGS-131000 Unspecified NONE
14232013-09-19 14:44PSTYesJBD/NHUSGS-148000 Unspecified NONE
14222013-09-19 14:32PSTYesJBD/NHUSGS-149000 Unspecified NONE
14212013-09-19 13:57PSTYesJBD/NHUSGS-152000 Unspecified NONE
14202013-09-19 13:44PSTYesJBD/NHUSGS-151000 Unspecified NONE
14192013-09-19 13:28PSTYesJBD/NHUSGS-150000 Unspecified NONE
14182013-09-19 13:16PSTYesJBD/NHUSGS-147000 Unspecified NONE
14172013-09-19 12:57PSTYesJBD/NHUSGS-141000 Unspecified NONE
14162013-09-19 12:49PSTYesJBD/NHUSGS-135000 Unspecified NONE
14152013-09-19 12:41PSTYesJBD/NHUSGS-131000 Unspecified NONE
14142013-09-19 12:33PSTYesJBD/NHUSGS-123000 Unspecified NONE
14132013-09-19 12:25PSTYesJBD/NHUSGS-119000 Unspecified NONE
14122013-09-19 12:17PSTYesJBD/NHUSGS-107000 Unspecified NONE
14112013-09-19 12:05PSTYesJBD/NHUSGS-94500 Unspecified NONE
14102013-09-19 11:56PSTYesJBD/NHUSGS-79600 Unspecified NONE
14092013-09-19 11:42PSTYesJBD/NHUSGS-54500 Unspecified NONE
14082013-09-19 11:31PSTYesJBD/NHUSGS-33600 Unspecified NONE
14072013-09-19 11:22PSTYesJBD/NHUSGS-11800 Unspecified NONE
14062013-09-19 11:09PSTYesJBD/NHUSGS15800 Unspecified NONE
14052013-09-19 10:58PSTYesJBD/NHUSGS34400 Unspecified NONE
14042013-09-19 10:45PSTYesJBD/NHUSGS58700 Unspecified NONE
14032013-09-19 10:34PSTYesJBD/NHUSGS73100 Unspecified NONE
14022013-09-19 10:21PSTYesJBD/NHUSGS88100 Unspecified NONE
14012013-09-19 10:03PSTYesJBD/NHUSGS102000 Unspecified NONE
14002013-09-19 09:51PSTYesJBD/NHUSGS113000 Unspecified NONE
13992013-09-19 09:42PSTYesJBD/NHUSGS115000 Unspecified NONE
13982013-09-19 09:35PSTYesJBD/NHUSGS119000 Unspecified NONE
13972013-09-19 09:28PSTYesJBD/NHUSGS121000 Unspecified NONE
13962013-09-19 09:21PSTYesJBD/NHUSGS121000 Unspecified NONE
13952013-09-19 09:14PSTYesJBD/NHUSGS126000 Unspecified NONE
13942013-09-19 09:07PSTYesJBD/NHUSGS127000 Unspecified NONE
13932013-09-19 09:00PSTYesJBD/NHUSGS129000 Unspecified NONE
13922013-09-19 08:52PSTYesJBD/NHUSGS129000 Unspecified NONE
13912013-09-19 08:45PSTYesJBD/NHUSGS131000 Unspecified NONE
13902013-09-19 08:37PSTYesJBD/NHUSGS131000 Unspecified NONE
13892013-09-19 08:29PSTYesJBD/NHUSGS135000 Unspecified NONE
13882013-09-19 08:21PSTYesJBD/NHUSGS133000 Unspecified NONE
13872013-09-19 08:13PSTYesJBD/NHUSGS134000 Unspecified NONE
13862013-09-19 08:05PSTYesJBD/NHUSGS134000 Unspecified NONE
13852013-09-19 07:57PSTYesJBD/NHUSGS137000 Unspecified NONE
13842013-09-19 07:48PSTYesJBD/NHUSGS138000 Unspecified NONE
13832013-09-19 07:41PSTYesJBD/NHUSGS136000 Unspecified NONE
13822013-09-19 07:33PSTYesJBD/NHUSGS137000 Unspecified NONE
13812013-09-19 07:25PSTYesJBD/NHUSGS139000 Unspecified NONE
13802013-09-19 07:16PSTYesJBD/NHUSGS135000 Unspecified NONE
13792013-09-19 06:56PSTYesJBD/NHUSGS135000 Unspecified NONE
13782013-09-19 06:47PSTYesJBD/NHUSGS132000 Unspecified NONE
13772013-09-19 06:36PSTYesJBD/NHUSGS130000 Unspecified NONE
13762013-09-19 06:24PSTYesJBD/NHUSGS126000 Unspecified NONE
13752013-07-24 09:35PSTYesNRH/JBTUSGS147000 Unspecified NONE
13742013-07-24 09:27PSTYesNRH/JBTUSGS149000 Unspecified NONE
13732013-07-24 09:20PSTYesNRH/JBTUSGS146000 Unspecified NONE
13722013-07-24 09:12PSTYesNRH/JBTUSGS148000 Unspecified NONE
13712013-07-24 09:07PSTYesNRH/JBTUSGS149000 Unspecified NONE
13702013-07-24 08:58PSTYesNRH/JBTUSGS150000 Unspecified NONE
13692013-07-24 08:52PSTYesNRH/JBTUSGS149000 Unspecified NONE
13682013-07-24 08:43PSTYesNRH/JBTUSGS150000 Unspecified NONE
13672013-07-24 06:50PSTYesNRH/JBTUSGS106000 Unspecified NONE
13662013-07-24 06:42PSTYesNRH/JBTUSGS98600 Unspecified NONE
13652013-07-24 06:36PSTYesNRH/JBTUSGS91700 Unspecified NONE
13642013-07-24 06:28PSTYesNRH/JBTUSGS80600 Unspecified NONE
13632013-07-24 05:44PSTYesNRH/JBTUSGS-2170 Unspecified NONE
13622013-07-24 05:37PSTYesNRH/JBTUSGS-15200 Unspecified NONE
13612013-07-24 04:46PSTYesNRH/JBTUSGS-93500 Unspecified NONE
13602013-07-24 04:38PSTYesNRH/JBTUSGS-101000 Unspecified NONE
13592013-07-24 04:09PSTYesNRH/JBTUSGS-125000 Unspecified NONE
13582013-07-24 04:01PSTYesNRH/JBTUSGS-131000 Unspecified NONE
13572013-07-24 03:17PSTYesNRH/JBTUSGS-149000 Unspecified NONE
13562013-07-24 03:07PSTYesNRH/JBTUSGS-153000 Unspecified NONE
13552013-07-24 02:54PSTYesNRH/JBTUSGS-158000 Unspecified NONE
13542013-07-24 02:44PSTYesNRH/JBTUSGS-156000 Unspecified NONE
13532013-07-24 02:23PSTYesNRH/JBTUSGS-161000 Unspecified NONE
13522013-07-24 02:13PSTYesNRH/JBTUSGS-161000 Unspecified NONE
13512013-07-24 02:04PSTYesNRH/JBTUSGS-158000 Unspecified NONE
13502013-07-24 01:53PSTYesNRH/JBTUSGS-160000 Unspecified NONE
13492013-07-24 01:43PSTYesNRH/JBTUSGS-162000 Unspecified NONE
13482013-07-24 01:31PSTYesNRH/JBTUSGS-151000 Unspecified NONE
13472012-10-18 14:48PSTYesYESUSGS-152000 Unspecified NONE
13462012-10-18 14:18PSTYesYESUSGS-141000 Unspecified NONE
13452012-10-18 13:58PSTYesYESUSGS-123000 Unspecified NONE
13442012-10-18 13:25PSTYesYESUSGS-89200 Unspecified NONE
13432012-10-18 13:12PSTYesYESUSGS-73900 Unspecified NONE
13422011-04-05 16:20PSTYesYESUSGS-109000 Unspecified NONE
13412011-04-05 16:08PSTYesYESUSGS-113000 Unspecified NONE
13402011-04-05 15:50PSTYesYESUSGS-111000 Unspecified NONE
13392011-04-05 15:40PSTYesYESUSGS-108000 Unspecified NONE
13382009-10-22 15:50PSTYesJBD/CBUSGS-128000 UnspecifiedUnspecifedNONE
13372009-10-22 15:37PSTYesJBD/CBUSGS-130000 UnspecifiedUnspecifedNONE
13362009-10-22 15:17PSTYesJBD/CBUSGS-125000 UnspecifiedUnspecifedNONE
13352009-10-22 15:07PSTYesJBD/CBUSGS-122000 UnspecifiedUnspecifedNONE
13342009-10-22 14:49PSTYesJBD/CBUSGS-114000 UnspecifiedUnspecifedNONE
13332009-10-22 14:38PSTYesJBD/CBUSGS-106000 UnspecifiedUnspecifedNONE
13322009-10-22 14:20PSTYesJBD/CBUSGS-94200 UnspecifiedUnspecifedNONE
13312009-10-22 14:09PSTYesJBD/CBUSGS-82000 UnspecifiedUnspecifedNONE
13302009-10-22 13:53PSTYesJBD/CBUSGS-69300 UnspecifiedUnspecifedNONE
13292009-10-22 13:42PSTYesJBD/CBUSGS-50400 UnspecifiedUnspecifedNONE
13282009-10-22 13:28PSTYesJBD/CBUSGS-35000 UnspecifiedUnspecifedNONE
13272009-10-22 13:17PSTYesJBD/CBUSGS-18000 UnspecifiedUnspecifedNONE
13262009-10-22 13:02PSTYesJBD/CBUSGS816 UnspecifiedUnspecifedNONE
13252009-10-22 12:47PSTYesJBD/CBUSGS22500 UnspecifiedUnspecifedNONE
13242009-10-22 12:35PSTYesJBD/CBUSGS38000 UnspecifiedUnspecifedNONE
13232009-10-22 12:24PSTYesJBD/CBUSGS49300 UnspecifiedUnspecifedNONE
13222009-10-22 11:33PSTYesJBD/CBUSGS77900 UnspecifiedUnspecifedNONE
13212009-10-22 11:19PSTYesJBD/CBUSGS83800 UnspecifiedUnspecifedNONE
13202009-10-22 11:02PSTYesJBD/CBUSGS82100 UnspecifiedUnspecifedNONE
13192009-10-22 10:47PSTYesJBD/CBUSGS81300 UnspecifiedUnspecifedNONE
13182009-10-22 10:31PSTYesJBD/CBUSGS74600 UnspecifiedUnspecifedNONE
13172009-10-22 10:19PSTYesJBD/CBUSGS67600 UnspecifiedUnspecifedNONE
13162009-10-22 09:45PSTYesJBD/CBUSGS47400 UnspecifiedUnspecifedNONE
13152009-10-22 09:31PSTYesJBD/CBUSGS29000 UnspecifiedUnspecifedNONE
13142009-10-22 09:14PSTYesJBD/CBUSGS7570 UnspecifiedUnspecifedNONE
13132009-10-22 09:03PSTYesJBD/CBUSGS-6510 UnspecifiedUnspecifedNONE
13122009-10-22 08:48PSTYesJBD/CBUSGS-22100 UnspecifiedUnspecifedNONE
13112009-10-22 08:39PSTYesJBD/CBUSGS-35000 UnspecifiedUnspecifedNONE
13102009-10-22 08:26PSTYesJBD/CBUSGS-46300 UnspecifiedUnspecifedNONE
13092009-10-22 08:14PSTYesJBD/CBUSGS-58600 UnspecifiedUnspecifedNONE
13082009-10-22 07:57PSTYesJBD/CBUSGS-68200 UnspecifiedUnspecifedNONE
13072009-10-22 07:46PSTYesJBD/CBUSGS-79100 UnspecifiedUnspecifedNONE
13062009-10-22 07:28PSTYesJBD/CBUSGS-87800 UnspecifiedUnspecifedNONE
13052009-10-22 07:17PSTYesJBD/CBUSGS-95600 UnspecifiedUnspecifedNONE
13042009-10-22 07:03PSTYesJBD/CBUSGS-101000 UnspecifiedUnspecifedNONE
13032009-10-22 06:38PSTYesJBD/CBUSGS-112000 UnspecifiedUnspecifedNONE
13022009-10-22 06:23PSTYesJBD/CBUSGS-118000 UnspecifiedUnspecifedNONE
13012009-01-08 10:51PSTYesBJS/PHKUSGS-1480005.47 Unspecified NONE
13002009-01-08 10:32PSTYesBJS/PHKUSGS-1500005.33 Unspecified NONE
12992009-01-08 10:14PSTYesBJS/PHKUSGS-1480005.21 Unspecified NONE
12982009-01-08 09:56PSTYesBJS/PHKUSGS-1480005.06 Unspecified NONE
12972009-01-08 09:38PSTYesBJS/PHKUSGS-1430004.92 Unspecified NONE
12962009-01-08 09:22PSTYesBJS/PHKUSGS-1380004.80 Unspecified NONE
12952008-08-21 07:07PSTYesPKx/JBDUSGS-749004.87 Unspecified NONE
12942008-08-21 06:56PSTYesPKx/JBDUSGS-829004.87 Unspecified NONE
12932008-06-18 15:25PSTYes???/???USGS-1280003.82 Unspecified NONE
12922008-06-18 15:14PSTYes???/???USGS-1300003.75 Unspecified NONE
12912008-06-18 15:03PSTYes???/???USGS-1270003.69 Unspecified NONE
12902008-06-18 14:48PSTYes???/???USGS-1240003.62 Unspecified NONE
12892008-06-18 14:37PSTYes???/???USGS-1190003.57 Unspecified NONE
12882008-06-18 14:26PSTYes???/???USGS-1130003.53 Unspecified NONE
12872008-06-18 14:16PSTYes???/???USGS-1060003.48 Unspecified NONE
12862008-06-18 14:05PSTYes???/???USGS-997003.45 Unspecified NONE
12852008-06-18 13:46PSTYes???/???USGS-798003.29 Unspecified NONE
12842008-06-18 13:37PSTYes???/???USGS-692003.20 Unspecified NONE
12832008-06-18 13:28PSTYes???/???USGS-637003.12 Unspecified NONE
12822008-06-18 13:18PSTYes???/???USGS-397003.03 Unspecified NONE
12812008-06-18 13:09PSTYes???/???USGS-237002.94 Unspecified NONE
12802008-06-18 12:59PSTYes???/???USGS-84502.84 Unspecified NONE
12792008-06-18 08:30PSTYes???/???USGS1430003.11 Unspecified NONE
12782008-06-18 08:18PSTYes???/???USGS1420003.22 Unspecified NONE
12772008-06-18 08:03PSTYes???/???USGS1450003.35 Unspecified NONE
12762008-06-18 07:51PSTYes???/???USGS1440003.46 Unspecified NONE
12752008-06-18 07:38PSTYes???/???USGS1480003.57 Unspecified NONE
12742008-06-18 07:26PSTYes???/???USGS1480003.67 Unspecified NONE
12732008-06-18 07:13PSTYes???/???USGS1470003.76 Unspecified NONE
12722008-06-18 07:01PSTYes???/???USGS1460003.87 Unspecified NONE
12712008-06-18 06:47PSTYes???/???USGS1470003.99 Unspecified NONE
12702008-06-18 06:24PSTYes???/???USGS1440004.20 Unspecified NONE
12692008-05-13 18:23PSTYesJEG/CRBUSGS588002.04 Unspecified NONE
12682008-05-13 18:10PSTYesJEG/CRBUSGS733001.93 Unspecified NONE
12672008-05-13 18:00PSTYesJEG/CRBUSGS807001.88 Unspecified NONE
12662008-05-13 17:45PSTYesJEG/CRBUSGS917001.80 Unspecified NONE
12652008-05-13 17:36PSTYesJEG/CRBUSGS969001.78 Unspecified NONE
12642008-05-13 17:17PSTYesJEG/CRBUSGS1040001.77 Unspecified NONE
12632008-05-13 17:07PSTYesJEG/CRBUSGS1100001.81 Unspecified NONE
12622008-05-13 16:59PSTYesJEG/CRBUSGS1110001.86 Unspecified NONE
12612008-05-13 16:49PSTYesJEG/CRBUSGS1150001.86 Unspecified NONE
12602008-05-13 16:38PSTYesJEG/CRBUSGS1180001.92 Unspecified NONE
12592008-05-13 16:26PSTYesJEG/CRBUSGS1200002.02 Unspecified NONE
12582008-05-13 16:03PSTYesJEG/CRBUSGS1240002.17 Unspecified NONE
12572008-05-13 15:52PSTYesJEG/CRBUSGS1250002.24 Unspecified NONE
12562008-05-13 15:40PSTYesJEG/CRBUSGS1260002.31 Unspecified NONE
12552008-05-13 15:27PSTYesJEG/CRBUSGS1270002.39 Unspecified NONE
12542008-05-13 15:11PSTYesJEG/CRBUSGS1280002.52 Unspecified NONE
12532008-05-13 14:57PSTYesJEG/CRBUSGS1270002.62 Unspecified NONE
12522008-05-13 14:43PSTYesJEG/CRBUSGS1260002.73 Unspecified NONE
12512008-05-13 14:29PSTYesJEG/CRBUSGS1240002.84 Unspecified NONE
12502008-05-13 13:52PSTYesJEG/CRBUSGS1120003.11 Unspecified NONE
12492008-05-13 13:13PSTYesJEG/CRBUSGS897003.41 Unspecified NONE
12482008-05-13 12:55PSTYesJEG/CRBUSGS720003.56 Unspecified NONE
12472008-05-13 12:41PSTYesJEG/CRBUSGS553003.68 Unspecified NONE
12462008-05-13 12:28PSTYesJEG/CRBUSGS383003.80 Unspecified NONE
12452008-05-13 12:15PSTYesJEG/CRBUSGS205003.91 Unspecified NONE
12442008-05-13 11:53PSTYesJEG/CRBUSGS-114004.08 Unspecified NONE
12432008-05-13 11:39PSTYesJEG/CRBUSGS-332004.19 Unspecified NONE
12422008-05-13 11:25PSTYesJEG/CRBUSGS-497004.26 Unspecified NONE
12412008-05-13 11:11PSTYesJEG/CRBUSGS-651004.30 Unspecified NONE
12402008-05-13 10:58PSTYesJEG/CRBUSGS-770004.33 Unspecified NONE
12392008-05-13 09:57PSTYesJEG/CRBUSGS-1070004.29 Unspecified NONE
12382008-05-13 09:43PSTYesJEG/CRBUSGS-1080004.25 Unspecified NONE
12372008-05-13 09:12PSTYesJEG/CRBUSGS-1080004.13 Unspecified NONE
12362008-05-13 08:58PSTYesJEG/CRBUSGS-1030004.09 Unspecified NONE
12352008-05-13 08:44PSTYesJEG/CRBUSGS-992004.03 Unspecified NONE
12342008-05-13 08:17PSTYesJEG/CRBUSGS-840003.91 Unspecified NONE
12332008-05-13 08:02PSTYesJEG/CRBUSGS-685003.82 Unspecified NONE
12322008-05-13 07:46PSTYesJEG/CRBUSGS-550003.70 Unspecified NONE
12312008-05-13 07:33PSTYesJEG/CRBUSGS-324003.62 Unspecified NONE
12302008-05-13 07:19PSTYesJEG/CRBUSGS-151003.50 Unspecified NONE
12292008-05-13 07:04PSTYesJEG/CRBUSGS38103.36 Unspecified NONE
12282008-05-13 06:49PSTYesJEG/CRBUSGS280003.22 Unspecified NONE
12272008-05-13 06:36PSTYesJEG/CRBUSGS436003.12 Unspecified NONE
12262008-02-26 18:34PSTYesBJS/CRBUSGS-1000003.76 Unspecified NONE
12252008-02-26 18:23PSTYesBJS/CRBUSGS-992003.72 Unspecified NONE
12242008-02-26 18:11PSTYesBJS/CRBUSGS-975003.68 Unspecified NONE
12232008-02-26 17:58PSTYesBJS/CRBUSGS-938003.63 Unspecified NONE
12222008-02-26 17:44PSTYesBJS/CRBUSGS-884003.58 Unspecified NONE
12212008-02-26 17:30PSTYesBJS/CRBUSGS-798003.53 Unspecified NONE
12202008-02-26 17:15PSTYesBJS/CRBUSGS-693003.46 Unspecified NONE
12192008-02-26 17:01PSTYesBJS/CRBUSGS-616003.36 Unspecified NONE
12182008-02-26 16:48PSTYesBJS/CRBUSGS-400003.27 Unspecified NONE
12172008-02-26 16:33PSTYesBJS/CRBUSGS-231003.16 Unspecified NONE
12162008-02-26 16:20PSTYesBJS/CRBUSGS-35503.04 Unspecified NONE
12152008-02-26 15:59PSTYesBJS/CRBUSGS288002.84 Unspecified NONE
12142008-02-26 15:43PSTYesBJS/CRBUSGS449002.71 Unspecified NONE
12132008-02-26 15:24PSTYesBJS/CRBUSGS669002.57 Unspecified NONE
12122008-02-26 15:06PSTYesBJS/CRBUSGS803002.50 Unspecified NONE
12112008-02-26 14:51PSTYesBJS/CRBUSGS903002.46 Unspecified NONE
12102008-02-26 14:37PSTYesBJS/CRBUSGS980002.43 Unspecified NONE
12092008-02-26 14:24PSTYesBJS/CRBUSGS1040002.44 Unspecified NONE
12082008-02-26 14:11PSTYesBJS/CRBUSGS1090002.46 Unspecified NONE
12072008-02-26 13:45PSTYesBJS/CRBUSGS1150002.54 Unspecified NONE
12062008-02-26 13:30PSTYesBJS/CRBUSGS1220002.61 Unspecified NONE
12052008-02-26 13:16PSTYesBJS/CRBUSGS1250002.70 Unspecified NONE
12042008-02-26 13:01PSTYesBJS/CRBUSGS1270002.79 Unspecified NONE
12032008-02-26 12:45PSTYesBJS/CRBUSGS1270002.89 Unspecified NONE
12022008-02-26 12:22PSTYesBJS/CRBUSGS1300003.06 Unspecified NONE
12012008-02-26 12:10PSTYesBJS/CRBUSGS1320003.15 Unspecified NONE
12002008-02-26 11:57PSTYesBJS/CRBUSGS1320003.25 Unspecified NONE
11992008-02-26 11:42PSTYesBJS/CRBUSGS1340003.36 Unspecified NONE
11982008-02-26 11:26PSTYesBJS/CRBUSGS1330003.49 Unspecified NONE
11972008-02-26 11:12PSTYesBJS/CRBUSGS1330003.59 Unspecified NONE
11962008-02-26 10:57PSTYesBJS/CRBUSGS1310003.69 Unspecified NONE
11952008-02-26 10:42PSTYesBJS/CRBUSGS1290003.79 Unspecified NONE
11942008-02-26 10:25PSTYesBJS/CRBUSGS1260003.91 Unspecified NONE
11932008-02-26 10:09PSTYesBJS/CRBUSGS1180004.01 Unspecified NONE
11922008-02-26 09:53PSTYesBJS/CRBUSGS1070004.12 Unspecified NONE
11912008-02-26 09:37PSTYesBJS/CRBUSGS957004.25 Unspecified NONE
11902008-02-26 09:09PSTYesBJS/CRBUSGS644004.51 Unspecified NONE
11892008-02-26 08:56PSTYesBJS/CRBUSGS442004.63 Unspecified NONE
11882008-02-26 08:38PSTYesBJS/CRBUSGS178004.80 Unspecified NONE
11872008-02-26 08:19PSTYesBJS/CRBUSGS-156004.98 Unspecified NONE
11862008-02-26 07:59PSTYesBJS/CRBUSGS-467005.12 Unspecified NONE
11852008-02-26 07:41PSTYesBJS/CRBUSGS-681005.20 Unspecified NONE
11842008-02-26 07:25PSTYesBJS/CRBUSGS-836005.24 Unspecified NONE
11832008-02-26 07:09PSTYesBJS/CRBUSGS-975005.25 Unspecified NONE
11822008-02-26 06:53PSTYesBJS/CRBUSGS-1080005.24 Unspecified NONE
11812008-02-26 06:36PSTYesBJS/CRBUSGS-1200005.19 Unspecified NONE
11802008-02-26 06:24PSTYesBJS/CRBUSGS-1240005.14 Unspecified NONE
11792007-07-31 16:44PSTYesJRY/JWxUSGS-1380004.90 Unspecified NONE
11782007-07-31 16:32PSTYesJRY/JWxUSGS-1400004.83 Unspecified NONE
11772007-07-31 16:17PSTYesJRY/JWxUSGS-1420004.74 Unspecified NONE
11762007-07-31 16:03PSTYesJRY/JWxUSGS-1440004.65 Unspecified NONE
11752007-07-31 15:47PSTYesJRY/JWxUSGS-1430004.54 Unspecified NONE
11742007-07-31 15:33PSTYesJRY/JWxUSGS-1420004.44 Unspecified NONE
11732007-07-31 15:21PSTYesJRY/JWxUSGS-1390004.38 Unspecified NONE
11722007-07-31 15:11PSTYesJRY/JWxUSGS-1350004.32 Unspecified NONE
11712007-07-31 15:00PSTYesJRY/JWxUSGS-1320004.26 Unspecified NONE
11702007-07-31 14:49PSTYesJRY/JWxUSGS-1260004.21 Unspecified NONE
11692007-07-31 14:38PSTYesJRY/JWxUSGS-1180004.15 Unspecified NONE
11682007-07-31 14:24PSTYesJRY/JWxUSGS-1060004.05 Unspecified NONE
11672007-07-31 14:12PSTYesJRY/JWxUSGS-906003.96 Unspecified NONE
11662007-07-31 13:56PSTYesJRY/JWxUSGS-644003.81 Unspecified NONE
11652007-07-31 13:46PSTYesJRY/JWxUSGS-513003.70 Unspecified NONE
11642007-07-31 13:36PSTYesJRY/JWxUSGS-312003.59 Unspecified NONE
11632007-07-31 13:27PSTYesJRY/JWxUSGS-96803.47 Unspecified NONE
11622007-07-31 13:17PSTYesJRY/JWxUSGS104003.32 Unspecified NONE
11612007-07-31 13:06PSTYesJRY/JWxUSGS345003.14 Unspecified NONE
11602007-07-31 12:54PSTYesJRY/JWxUSGS547002.97 Unspecified NONE
11592007-07-31 12:46PSTYesJRY/JWxUSGS686002.85 Unspecified NONE
11582007-07-31 12:37PSTYesJRY/JWxUSGS815002.76 Unspecified NONE
11572007-07-31 12:27PSTYesJRY/JWxUSGS902002.69 Unspecified NONE
11562007-07-31 12:16PSTYesJRY/JWxUSGS1010002.63 Unspecified NONE
11552007-07-31 12:06PSTYesJRY/JWxUSGS1090002.61 Unspecified NONE
11542007-07-31 10:54PSTYesJRY/JWxUSGS1330002.86 Unspecified NONE
11532007-07-31 10:43PSTYesJRY/JWxUSGS1340002.94 Unspecified NONE
11522007-07-31 10:33PSTYesJRY/JWxUSGS1360003.01 Unspecified NONE
11512007-07-31 09:44PSTYesJRY/JWxUSGS1430003.43 Unspecified NONE
11502007-07-31 09:34PSTYesJRY/JWxUSGS1440003.52 Unspecified NONE
11492007-07-31 09:23PSTYesJRY/JWxUSGS1450003.61 Unspecified NONE
11482007-07-31 09:12PSTYesJRY/JWxUSGS1450003.70 Unspecified NONE
11472007-07-31 08:59PSTYesJRY/JWxUSGS1480003.83 Unspecified NONE
11462007-07-31 08:49PSTYesJRY/JWxUSGS1490003.91 Unspecified NONE
11452006-09-07 17:14PSTYes???USGS-493005.15 Unspecified NONE
11442006-09-07 17:02PSTYes???USGS-667005.22 Unspecified NONE
11432006-09-07 16:35PSTYes???USGS-965005.32 Unspecified NONE
11422006-09-07 16:24PSTYes???USGS-1050005.33 Unspecified NONE
11412006-09-07 16:13PSTYes???USGS-1130005.33 Unspecified NONE
11402006-09-07 16:02PSTYes???USGS-1210005.31 Unspecified NONE
11392006-09-07 15:25PSTYes???USGS-1390005.16 Unspecified NONE
11382006-09-07 15:11PSTYes???USGS-1430005.08 Unspecified NONE
11372006-09-07 14:59PSTYes???USGS-1500005.02 Unspecified NONE
11362006-09-07 14:46PSTYes???USGS-1490004.93 Unspecified NONE
11352006-09-07 14:34PSTYes???USGS-1510004.85 Unspecified NONE
11342006-09-07 14:21PSTYes???USGS-1540004.76 Unspecified NONE
11332006-09-07 14:06PSTYes???USGS-1520004.65 Unspecified NONE
11322006-09-07 13:52PSTYes???USGS-1520004.55 Unspecified NONE
11312006-09-07 13:25PSTYes???USGS-1470004.41 Unspecified NONE
11302006-09-07 13:12PSTYes???USGS-1410004.33 Unspecified NONE
11292006-09-07 13:00PSTYes???USGS-1330004.27 Unspecified NONE
11282006-09-07 12:50PSTYes???USGS-1260004.21 Unspecified NONE
11272006-09-07 12:38PSTYes???USGS-1100004.13 Unspecified NONE
11262006-09-07 12:27PSTYes???USGS-985004.03 Unspecified NONE
11252006-09-07 12:17PSTYes???USGS-852003.93 Unspecified NONE
11242006-09-07 12:07PSTYes???USGS-579003.82 Unspecified NONE
11232006-09-07 11:58PSTYes???USGS-483003.70 Unspecified NONE
11222006-09-07 11:46PSTYes???USGS-231003.51 Unspecified NONE
11212006-09-07 11:36PSTYes???USGS31903.34 Unspecified NONE
11202006-09-07 11:27PSTYes???USGS213003.19 Unspecified NONE
11192006-09-07 11:17PSTYes???USGS436003.02 Unspecified NONE
11182006-09-07 11:08PSTYes???USGS593002.91 Unspecified NONE
11172006-09-07 10:55PSTYes???USGS781002.78 Unspecified NONE
11162006-09-07 10:45PSTYes???USGS912002.67 Unspecified NONE
11152006-09-07 10:26PSTYes???USGS1100002.57 Unspecified NONE
11142006-09-07 10:13PSTYes???USGS1190002.53 Unspecified NONE
11132006-09-07 10:00PSTYes???USGS1230002.44 Unspecified NONE
11122006-09-07 09:46PSTYes???USGS1300002.60 Unspecified NONE
11112006-09-07 09:34PSTYes???USGS1330002.65 Unspecified NONE
11102006-09-07 09:21PSTYes???USGS1350002.73 Unspecified NONE
11092006-09-07 09:06PSTYes???USGS1380002.84 Unspecified NONE
11082006-09-07 08:53PSTYes???USGS1390002.95 Unspecified NONE
11072006-09-07 08:41PSTYes???USGS1410003.06 Unspecified NONE
11062006-09-07 08:30PSTYes???USGS1440003.14 Unspecified NONE
11052006-09-07 08:18PSTYes???USGS1450003.26 Unspecified NONE
11042006-09-07 08:03PSTYes???USGS1480003.40 Unspecified NONE
11032006-09-07 07:39PSTYes???USGS1470003.60 Unspecified NONE
11022006-09-07 07:28PSTYes???USGS1460003.70 Unspecified NONE
11012006-09-07 07:16PSTYes???USGS1510003.78 Unspecified NONE
11002004-03-11 18:22PSTYes???USGS-12600012.34 Unspecified NONE
10992004-03-11 18:10PSTYes???USGS-12700012.29 Unspecified NONE
10982004-03-11 17:58PSTYes???USGS-12400012.23 Unspecified NONE
10972004-03-11 17:47PSTYes???USGS-12200012.17 Unspecified NONE
10962004-03-11 17:36PSTYes???USGS-11500012.12 Unspecified NONE
10952004-03-11 17:19PSTYes???USGS-10800012.04 Unspecified NONE
10942004-03-11 17:06PSTYes???USGS-9700011.96 Unspecified NONE
10932004-03-11 16:42PSTYes???USGS-6220011.76 Unspecified NONE
10922004-03-11 16:30PSTYes???USGS-5050011.64 Unspecified NONE
10912004-03-11 16:17PSTYes???USGS-3000011.50 Unspecified NONE
10902004-03-11 16:06PSTYes???USGS-288011.37 Unspecified NONE
10892004-03-11 15:56PSTYes???USGS1240011.23 Unspecified NONE
10882004-03-11 15:47PSTYes???USGS3310011.11 Unspecified NONE
10872004-03-11 15:36PSTYes???USGS4680010.97 Unspecified NONE
10862004-03-11 15:26PSTYes???USGS6230010.86 Unspecified NONE
10852004-03-11 15:16PSTYes???USGS7480010.77 Unspecified NONE
10842004-03-11 15:06PSTYes???USGS8470010.70 Unspecified NONE
10832004-03-11 14:55PSTYes???USGS9540010.64 Unspecified NONE
10822004-03-11 14:43PSTYes???USGS10100010.60 Unspecified NONE
10812004-03-11 14:30PSTYes???USGS11100010.57 Unspecified NONE
10802004-03-11 14:18PSTYes???USGS11600010.58 Unspecified NONE
10792004-03-11 14:05PSTYes???USGS12400010.60 Unspecified NONE
10782004-03-11 13:41PSTYes???USGS13000010.68 Unspecified NONE
10772004-03-11 13:30PSTYes???USGS13400010.73 Unspecified NONE
10762004-03-11 13:20PSTYes???USGS13500010.78 Unspecified NONE
10752004-03-11 13:09PSTYes???USGS14000010.85 Unspecified NONE
10742004-03-11 12:40PSTYes???USGS14100011.04 Unspecified NONE
10732004-03-11 12:28PSTYes???USGS14700011.13 Unspecified NONE
10722004-03-11 12:17PSTYes???USGS14200011.22 Unspecified NONE
10712004-03-11 12:06PSTYes???USGS14800011.30 Unspecified NONE
10702004-03-11 11:53PSTYes???USGS14700011.41 Unspecified NONE
10692004-03-11 11:42PSTYes???USGS15200011.50 Unspecified NONE
10682004-03-11 11:11PSTYes???USGS14700011.76 Unspecified NONE
10672004-03-11 10:59PSTYes???USGS15000011.87 Unspecified NONE
10662004-03-11 10:47PSTYes???USGS14500011.97 Unspecified NONE
10652004-03-11 10:34PSTYes???USGS14900012.08 Unspecified NONE
10642004-03-11 10:06PSTYes???USGS13800012.31 Unspecified NONE
10632004-03-11 09:52PSTYes???USGS13600012.42 Unspecified NONE
10622004-03-11 09:33PSTYes???USGS11800012.57 Unspecified NONE
10612004-03-11 09:21PSTYes???USGS11200012.66 Unspecified NONE
10602004-03-11 09:09PSTYes???USGS9720012.77 Unspecified NONE
10592004-03-11 08:59PSTYes???USGS8790012.86 Unspecified NONE
10582004-03-11 08:46PSTYes???USGS6750013.00 Unspecified NONE
10572004-03-11 08:37PSTYes???USGS5370013.08 Unspecified NONE
10562004-03-11 08:28PSTYes???USGS3680013.17 Unspecified NONE
10552004-03-11 08:18PSTYes???USGS1900013.27 Unspecified NONE
10542004-03-11 08:08PSTYes???USGS107013.37 Unspecified NONE
10532004-03-11 07:56PSTYes???USGS-2160013.49 Unspecified NONE
10522004-03-11 07:46PSTYes???USGS-3750013.58 Unspecified NONE
10512004-03-11 07:36PSTYes???USGS-5500013.66 Unspecified NONE
10502004-03-11 07:25PSTYes???USGS-6770013.72 Unspecified NONE
10492004-03-11 07:14PSTYes???USGS-8340013.76 Unspecified NONE
10482004-03-11 06:56PSTYes???USGS-9820013.87 Unspecified NONE
10472004-03-11 06:45PSTYes???USGS-11100013.86 Unspecified NONE
10462004-03-11 06:34PSTYes???USGS-12000013.85 Unspecified NONE
10452004-03-11 06:21PSTYes???USGS-12900013.81 Unspecified NONE
10442003-09-22 17:58PSTYes???USGS9650011.99 Unspecified NONE
10432003-09-22 17:50PSTYes???USGS9460012.01 Unspecified NONE
10422003-09-22 17:41PSTYes???USGS9060012.06 Unspecified NONE
10412003-09-22 17:32PSTYes???USGS8700012.10 Unspecified NONE
10402003-09-22 17:25PSTYes???USGS8260012.13 Unspecified NONE
10392003-09-22 17:17PSTYes???USGS7660012.18 Unspecified NONE
10382003-09-22 17:09PSTYes???USGS6990012.23 Unspecified NONE
10372003-09-22 17:01PSTYes???USGS6360012.28 Unspecified NONE
10362003-09-22 16:53PSTYes???USGS5670012.32 Unspecified NONE
10352003-09-22 16:45PSTYes???USGS4720012.37 Unspecified NONE
10342003-09-22 16:37PSTYes???USGS3900012.42 Unspecified NONE
10332003-09-22 16:29PSTYes???USGS2690012.47 Unspecified NONE
10322003-09-22 16:21PSTYes???USGS1830012.53 Unspecified NONE
10312003-09-22 16:13PSTYes???USGS594012.58 Unspecified NONE
10302003-09-22 16:06PSTYes???USGS-415012.64 Unspecified NONE
10292003-09-22 15:57PSTYes???USGS-1680012.70 Unspecified NONE
10282003-09-22 15:50PSTYes???USGS-2590012.74 Unspecified NONE
10272003-09-22 15:39PSTYes???USGS-4080012.80 Unspecified NONE
10262003-09-22 15:31PSTYes???USGS-4740012.84 Unspecified NONE
10252003-09-22 15:24PSTYes???USGS-5710012.87 Unspecified NONE
10242003-09-22 15:16PSTYes???USGS-6370012.90 Unspecified NONE
10232003-09-22 15:07PSTYes???USGS-7180012.92 Unspecified NONE
10222003-09-22 14:59PSTYes???USGS-7770012.93 Unspecified NONE
10212003-09-22 14:51PSTYes???USGS-8470012.93 Unspecified NONE
10202003-09-22 14:43PSTYes???USGS-8930012.93 Unspecified NONE
10192003-09-22 14:25PSTYes???USGS-10200012.92 Unspecified NONE
10182003-09-22 14:08PSTYes???USGS-10900012.87 Unspecified NONE
10172003-09-22 13:43PSTYes???USGS-12000012.79 Unspecified NONE
10162003-09-22 13:35PSTYes???USGS-12300012.72 Unspecified NONE
10152003-09-22 13:14PSTYes???USGS-13200012.65 Unspecified NONE
10142003-09-22 12:57PSTYes???USGS-13400012.50 Unspecified NONE
10132003-09-22 12:47PSTYes???USGS-13600012.44 Unspecified NONE
10122003-09-22 12:38PSTYes???USGS-13800012.39 Unspecified NONE
10112003-09-22 11:27PSTYes???USGS-13000011.93 Unspecified NONE
10102003-09-22 11:16PSTYes???USGS-12400011.88 Unspecified NONE
10092003-09-22 11:07PSTYes???USGS-11800011.82 Unspecified NONE
10082003-09-22 10:56PSTYes???USGS-11100011.75 Unspecified NONE
10072003-09-22 10:47PSTYes???USGS-10400011.71 Unspecified NONE
10062003-09-22 10:38PSTYes???USGS-9450011.65 Unspecified NONE
10052003-09-22 10:29PSTYes???USGS-8530011.58 Unspecified NONE
10042003-09-22 10:13PSTYes???USGS-6050011.43 Unspecified NONE
10032003-09-22 10:04PSTYes???USGS-5070011.35 Unspecified NONE
10022003-09-22 09:54PSTYes???USGS-3470011.25 Unspecified NONE
10012003-09-22 09:46PSTYes???USGS-1750011.15 Unspecified NONE
10002003-09-22 09:38PSTYes???USGS-253011.06 Unspecified NONE
9992003-09-22 09:29PSTYes???USGS1220010.97 Unspecified NONE
9982003-09-22 09:21PSTYes???USGS2620010.86 Unspecified NONE
9972003-09-22 09:13PSTYes???USGS4140010.76 Unspecified NONE
9962003-09-22 09:05PSTYes???USGS5170010.67 Unspecified NONE
9952003-09-22 08:57PSTYes???USGS6260010.59 Unspecified NONE
9942003-09-22 08:49PSTYes???USGS7130010.50 Unspecified NONE
9932003-09-22 08:41PSTYes???USGS7870010.45 Unspecified NONE
9922003-09-22 08:33PSTYes???USGS8570010.41 Unspecified NONE
9912003-09-22 08:25PSTYes???USGS9180010.38 Unspecified NONE
9902003-09-22 08:14PSTYes???USGS9950010.36 Unspecified NONE
9892003-09-22 08:05PSTYes???USGS10500010.35 Unspecified NONE
9882003-09-22 07:56PSTYes???USGS11000010.37 Unspecified NONE
9872003-09-22 07:47PSTYes???USGS11400010.39 Unspecified NONE
9862003-09-22 07:38PSTYes???USGS11800010.41 Unspecified NONE
9852003-09-22 07:29PSTYes???USGS11800010.46 Unspecified NONE
9842003-09-22 07:09PSTYes???USGS12100010.56 Unspecified NONE
9832003-09-22 06:58PSTYes???USGS12500010.62 Unspecified NONE
9822003-09-22 06:48PSTYes???USGS12600010.68 Unspecified NONE
9812003-09-22 06:37PSTYes???USGS12900010.76 Unspecified NONE
9802003-09-22 06:26PSTYes???USGS13200010.84 Unspecified NONE
9792003-09-22 06:12PSTYes???USGS13300010.95 Unspecified NONE
9782003-09-22 05:58PSTYes???USGS13600011.07 Unspecified NONE
9772003-09-22 05:45PSTYes???USGS13500011.16 Unspecified NONE
9762003-09-10 18:43PSTYes???USGS6750012.10 Unspecified NONE
9752003-09-10 18:37PSTYes???USGS5940012.16 Unspecified NONE
9742003-09-10 18:30PSTYes???USGS5070012.23 Unspecified NONE
9732003-09-10 18:24PSTYes???USGS3880012.29 Unspecified NONE
9722003-09-10 18:18PSTYes???USGS2910012.35 Unspecified NONE
9712003-09-10 18:11PSTYes???USGS1830012.42 Unspecified NONE
9702003-09-10 18:05PSTYes???USGS813012.48 Unspecified NONE
9692003-09-10 17:58PSTYes???USGS-415012.55 Unspecified NONE
9682003-09-10 17:52PSTYes???USGS-1500012.61 Unspecified NONE
9672003-09-10 17:46PSTYes???USGS-2550012.66 Unspecified NONE
9662003-09-10 17:39PSTYes???USGS-3550012.72 Unspecified NONE
9652003-09-10 17:32PSTYes???USGS-4500012.78 Unspecified NONE
9642003-09-10 17:25PSTYes???USGS-5470012.82 Unspecified NONE
9632003-09-10 17:19PSTYes???USGS-6390012.86 Unspecified NONE
9622003-09-10 17:12PSTYes???USGS-7090012.89 Unspecified NONE
9612003-09-10 17:03PSTYes???USGS-7900012.92 Unspecified NONE
9602003-09-10 16:56PSTYes???USGS-8600012.94 Unspecified NONE
9592003-09-10 16:49PSTYes???USGS-9340012.94 Unspecified NONE
9582003-09-10 16:41PSTYes???USGS-9760012.94 Unspecified NONE
9572003-09-10 16:33PSTYes???USGS-10400012.94 Unspecified NONE
9562003-09-10 16:25PSTYes???USGS-11000012.93 Unspecified NONE
9552003-09-10 16:17PSTYes???USGS-11500012.91 Unspecified NONE
9542003-09-10 16:09PSTYes???USGS-11900012.89 Unspecified NONE
9532003-09-10 16:01PSTYes???USGS-12300012.85 Unspecified NONE
9522003-09-10 15:52PSTYes???USGS-12800012.81 Unspecified NONE
9512003-09-10 15:44PSTYes???USGS-13100012.77 Unspecified NONE
9502003-09-10 15:35PSTYes???USGS-13300012.72 Unspecified NONE
9492003-09-10 15:25PSTYes???USGS-13700012.68 Unspecified NONE
9482003-09-10 15:03PSTYes???USGS-14100012.53 Unspecified NONE
9472003-09-10 14:53PSTYes???USGS-14200012.48 Unspecified NONE
9462003-09-10 14:44PSTYes???USGS-14300012.43 Unspecified NONE
9452003-09-10 14:36PSTYes???USGS-14300012.36 Unspecified NONE
9442003-09-10 14:26PSTYes???USGS-14400012.31 Unspecified NONE
9432003-09-10 14:17PSTYes???USGS-14300012.24 Unspecified NONE
9422003-09-10 14:07PSTYes???USGS-14100012.18 Unspecified NONE
9412003-09-10 13:59PSTYes???USGS-13900012.12 Unspecified NONE
9402003-09-10 13:49PSTYes???USGS-13600012.09 Unspecified NONE
9392003-09-10 13:41PSTYes???USGS-13300012.02 Unspecified NONE
9382003-09-10 13:33PSTYes???USGS-13100012.00 Unspecified NONE
9372003-09-10 13:24PSTYes???USGS-12500011.96 Unspecified NONE
9362003-09-10 13:03PSTYes???USGS-11000011.83 Unspecified NONE
9352003-09-10 11:49PSTYes???USGS1870010.96 Unspecified NONE
9342003-09-10 11:35PSTYes???USGS4450010.76 Unspecified NONE
9332003-09-10 11:23PSTYes???USGS6530010.60 Unspecified NONE
9322003-09-10 11:10PSTYes???USGS7950010.47 Unspecified NONE
9312003-09-10 10:57PSTYes???USGS9280010.38 Unspecified NONE
9302003-09-10 10:45PSTYes???USGS10200010.34 Unspecified NONE
9292003-09-10 10:33PSTYes???USGS11000010.32 Unspecified NONE
9282003-09-10 10:22PSTYes???USGS11200010.33 Unspecified NONE
9272003-09-10 10:04PSTYes???USGS11900010.39 Unspecified NONE
9262003-09-10 09:49PSTYes???USGS12400010.48 Unspecified NONE
9252003-09-10 09:34PSTYes???USGS12600010.57 Unspecified NONE
9242003-09-10 09:19PSTYes???USGS12900010.67 Unspecified NONE
9232003-09-10 09:01PSTYes???USGS13100010.81 Unspecified NONE
9222003-09-10 08:49PSTYes???USGS13300010.91 Unspecified NONE
9212003-09-10 08:36PSTYes???USGS13300010.99 Unspecified NONE
9202003-09-10 08:25PSTYes???USGS13700011.09 Unspecified NONE
9192003-09-10 08:14PSTYes???USGS13800011.18 Unspecified NONE
9182003-09-10 08:03PSTYes???USGS14100011.27 Unspecified NONE
9172003-09-10 07:49PSTYes???USGS14300011.39 Unspecified NONE
9162003-09-10 07:29PSTYes???USGS14300011.56 Unspecified NONE
9152003-09-10 07:18PSTYes???USGS14300011.66 Unspecified NONE
9142003-09-10 07:06PSTYes???USGS14400011.75 Unspecified NONE
9132003-09-10 06:51PSTYes???USGS14000011.86 Unspecified NONE
9122003-09-10 06:38PSTYes???USGS13900011.95 Unspecified NONE
9112003-09-10 06:14PSTYes???USGS12900012.13 Unspecified NONE
9102002-12-10 15:18PSTYes???USGS7630011.74 Unspecified NONE
9092002-12-10 15:09PSTYes???USGS8150011.72 Unspecified NONE
9082002-12-10 15:02PSTYes???USGS8630011.72 Unspecified NONE
9072002-12-10 14:53PSTYes???USGS8740011.72 Unspecified NONE
9062002-12-10 14:45PSTYes???USGS9060011.74 Unspecified NONE
9052002-12-10 14:37PSTYes???USGS9200011.74 Unspecified NONE
9042002-12-10 14:29PSTYes???USGS9570011.76 Unspecified NONE
9032002-12-10 14:21PSTYes???USGS9490011.79 Unspecified NONE
9022002-12-10 14:13PSTYes???USGS9540011.81 Unspecified NONE
9012002-12-10 14:05PSTYes???USGS9160011.83 Unspecified NONE
9002002-12-10 13:57PSTYes???USGS9390011.87 Unspecified NONE
8992002-12-10 13:47PSTYes???USGS9270011.91 Unspecified NONE
8982002-12-10 13:38PSTYes???USGS8950011.94 Unspecified NONE
8972002-12-10 13:30PSTYes???USGS8600011.96 Unspecified NONE
8962002-12-10 13:21PSTYes???USGS8360012.01 Unspecified NONE
8952002-12-10 13:12PSTYes???USGS7940012.06 Unspecified NONE
8942002-12-10 13:04PSTYes???USGS7320012.09 Unspecified NONE
8932002-12-10 12:55PSTYes???USGS6690012.15 Unspecified NONE
8922002-12-10 12:47PSTYes???USGS5960012.20 Unspecified NONE
8912002-12-10 12:39PSTYes???USGS5740011.76 Unspecified NONE
8902002-12-10 12:31PSTYes???USGS4400012.32 Unspecified NONE
8892002-12-10 12:22PSTYes???USGS3460012.36 Unspecified NONE
8882002-12-10 12:14PSTYes???USGS2880012.41 Unspecified NONE
8872002-12-10 12:06PSTYes???USGS1600012.46 Unspecified NONE
8862002-12-10 11:58PSTYes???USGS13200012.52 Unspecified NONE
8852002-12-10 11:57PSTYes???USGS587012.53 Unspecified NONE
8842002-12-10 11:48PSTYes???USGS-597012.59 Unspecified NONE
8832002-12-10 11:20PSTYes???USGS-3880012.75 Unspecified NONE
8822002-12-10 11:11PSTYes???USGS-4940012.80 Unspecified NONE
8812002-12-10 10:48PSTYes???USGS-7020012.87 Unspecified NONE
8802002-12-10 10:38PSTYes???USGS-7770012.89 Unspecified NONE
8792002-12-10 10:29PSTYes???USGS-8340012.90 Unspecified NONE
8782002-12-10 10:20PSTYes???USGS-9200012.91 Unspecified NONE
8772002-12-10 10:12PSTYes???USGS-9530012.90 Unspecified NONE
8762002-12-10 10:04PSTYes???USGS-9900012.88 Unspecified NONE
8752002-12-10 09:57PSTYes???USGS-10200012.87 Unspecified NONE
8742002-12-10 09:49PSTYes???USGS-10800012.86 Unspecified NONE
8732002-12-10 09:41PSTYes???USGS-10900012.84 Unspecified NONE
8722002-12-10 09:32PSTYes???USGS-11300012.81 Unspecified NONE
8712002-12-10 09:23PSTYes???USGS-11600012.77 Unspecified NONE
8702002-12-10 09:13PSTYes???USGS-12100012.72 Unspecified NONE
8692002-12-10 09:04PSTYes???USGS-12100012.68 Unspecified NONE
8682002-12-10 08:48PSTYes???USGS12700012.58 Unspecified NONE
8672002-12-10 08:39PSTYes???USGS12800012.53 Unspecified NONE
8662002-12-10 08:31PSTYes???USGS13000012.48 Unspecified NONE
8652002-12-10 08:21PSTYes???USGS-13200012.41 Unspecified NONE
8642002-12-10 08:14PSTYes???USGS-12800012.36 Unspecified NONE
8632002-12-10 07:56PSTYes???USGS-13400012.25 Unspecified NONE
8622002-12-10 07:47PSTYes???USGS-13400012.16 Unspecified NONE
8612002-12-10 07:38PSTYes???USGS-13500012.12 Unspecified NONE
8602002-12-10 07:29PSTYes???USGS-13600012.05 Unspecified NONE
8592002-12-10 07:19PSTYes???USGS-13400011.98 Unspecified NONE
8582002-12-10 07:10PSTYes???USGS-13200011.91 Unspecified NONE
8572002-12-10 07:01PSTYes???USGS-13500011.86 Unspecified NONE
8562002-12-10 06:52PSTYes???USGS-13300011.80 Unspecified NONE
8552002-12-10 06:44PSTYes???USGS-12800011.74 Unspecified NONE
8542002-12-10 06:35PSTYes???USGS-12700011.69 Unspecified NONE
8532002-12-10 06:01PSTYes???USGS-10700011.48 Unspecified NONE
8522002-12-10 05:52PSTYes???USGS-9880011.42 Unspecified NONE
8512002-12-10 05:42PSTYes???USGS-9040011.35 Unspecified NONE
8502002-12-10 05:33PSTYes???USGS-7920011.28 Unspecified NONE
8492002-12-10 05:24PSTYes???USGS-6820011.20 Unspecified NONE
8482002-12-10 05:15PSTYes???USGS-5830011.10 Unspecified NONE
8472002-12-10 05:06PSTYes???USGS-3950011.00 Unspecified NONE
8462002-12-10 04:57PSTYes???USGS-2370010.91 Unspecified NONE
8452002-12-10 04:48PSTYes???USGS-840010.81 Unspecified NONE
8442002-12-10 04:40PSTYes???USGS772010.71 Unspecified NONE
8432002-12-10 04:32PSTYes???USGS2100010.60 Unspecified NONE
8422002-12-10 04:18PSTYes???USGS4230010.42 Unspecified NONE
8412002-12-10 04:06PSTYes???USGS6100010.29 Unspecified NONE
8402002-12-10 03:59PSTYes???USGS6850010.22 Unspecified NONE
8392002-12-10 03:50PSTYes???USGS7690010.15 Unspecified NONE
8382002-12-10 03:42PSTYes???USGS8470010.10 Unspecified NONE
8372002-12-10 03:34PSTYes???USGS8990010.07 Unspecified NONE
8362002-12-10 03:25PSTYes???USGS9740010.04 Unspecified NONE
8352002-12-10 03:11PSTYes???USGS10300010.03 Unspecified NONE
8342002-12-10 03:02PSTYes???USGS10700010.04 Unspecified NONE
8332002-12-10 02:54PSTYes???USGS11000010.06 Unspecified NONE
8322002-12-10 02:46PSTYes???USGS11500010.08 Unspecified NONE
8312002-12-10 02:37PSTYes???USGS11800010.11 Unspecified NONE
8302002-12-10 02:28PSTYes???USGS11800010.15 Unspecified NONE
8292002-12-10 02:19PSTYes???USGS12000010.20 Unspecified NONE
8282002-12-10 02:10PSTYes???USGS12100010.26 Unspecified NONE
8272002-12-10 01:57PSTYes???USGS12300010.33 Unspecified NONE
8262002-12-10 01:49PSTYes???USGS12300010.38 Unspecified NONE
8252002-12-10 01:41PSTYes???USGS12700010.43 Unspecified NONE
8242002-12-10 01:33PSTYes???USGS12800010.48 Unspecified NONE
8232002-12-10 01:20PSTYes???USGS12600010.57 Unspecified NONE
8222002-12-10 01:10PSTYes???USGS12900010.64 Unspecified NONE
8212002-12-10 01:02PSTYes???USGS12900010.70 Unspecified NONE
8202002-12-10 00:54PSTYes???USGS13200010.76 Unspecified NONE
8192002-12-10 00:39PSTYes???USGS13500010.88 Unspecified NONE
8182002-12-10 00:30PSTYes???USGS13400010.94 Unspecified NONE
8172002-12-10 00:22PSTYes???USGS13400011.00 Unspecified NONE
8162002-12-10 00:07PSTYes???USGS13600011.12 Unspecified NONE
8152002-12-09 23:50PSTYes???USGS13600011.25 Unspecified NONE
8142002-12-09 23:00PSTYes???USGS13400011.67 Unspecified NONE
8132002-12-09 22:48PSTYes???USGS13300011.76 Unspecified NONE
8122002-12-09 22:39PSTYes???USGS13100011.84 Unspecified NONE
8112002-12-09 22:30PSTYes???USGS12900011.91 Unspecified NONE
8102002-12-09 22:20PSTYes???USGS12500011.99 Unspecified NONE
8092002-12-09 22:11PSTYes???USGS11900012.06 Unspecified NONE
8082002-12-09 22:01PSTYes???USGS11500012.14 Unspecified NONE
8072002-12-09 21:44PSTYes???USGS10100012.28 Unspecified NONE
8062002-12-09 21:33PSTYes???USGS9150012.38 Unspecified NONE
8052002-12-09 21:24PSTYes???USGS8270012.47 Unspecified NONE
8042002-12-09 21:16PSTYes???USGS7240012.55 Unspecified NONE
8032002-12-09 21:08PSTYes???USGS6300012.62 Unspecified NONE
8022002-12-09 21:00PSTYes???USGS5270012.70 Unspecified NONE
8012002-12-09 20:52PSTYes???USGS4020012.78 Unspecified NONE
8002002-12-09 20:40PSTYes???USGS2440012.90 Unspecified NONE
7992002-12-09 20:31PSTYes???USGS980012.97 Unspecified NONE
7982002-12-09 20:23PSTYes???USGS-225013.04 Unspecified NONE
7972002-12-09 20:14PSTYes???USGS-1550013.11 Unspecified NONE
7962002-12-09 20:06PSTYes???USGS-2590013.17 Unspecified NONE
7952002-12-09 19:55PSTYes???USGS-4140013.25 Unspecified NONE
7942002-12-09 19:26PSTYes???USGS-7040013.36 Unspecified NONE
7932002-12-09 19:18PSTYes???USGS-7660013.38 Unspecified NONE
7922002-12-09 19:11PSTYes???USGS-8290013.39 Unspecified NONE
7912002-12-09 19:03PSTYes???USGS-8870013.39 Unspecified NONE
7902002-12-09 18:55PSTYes???USGS-9240013.39 Unspecified NONE
7892002-12-09 18:48PSTYes???USGS-9680013.38 Unspecified NONE
7882002-12-09 18:40PSTYes???USGS-10000013.38 Unspecified NONE
7872002-12-09 18:31PSTYes???USGS-10500013.36 Unspecified NONE
7862002-12-09 18:23PSTYes???USGS-10500013.33 Unspecified NONE
7852002-12-09 18:15PSTYes???USGS-10600013.30 Unspecified NONE
7842002-12-09 18:07PSTYes???USGS-11000013.28 Unspecified NONE
7832002-12-09 17:59PSTYes???USGS-11300013.26 Unspecified NONE
7822002-12-09 17:51PSTYes???USGS-11300013.20 Unspecified NONE
7812002-12-09 17:40PSTYes???USGS-11100013.15 Unspecified NONE
7802002-12-09 17:29PSTYes???USGS-11100013.10 Unspecified NONE
7792002-12-09 17:15PSTYes???USGS-11100013.03 Unspecified NONE
7782002-12-09 16:53PSTYes???USGS-10400012.93 Unspecified NONE
7772002-12-09 16:42PSTYes???USGS-9930012.87 Unspecified NONE
7762001-09-14 16:38PSTYes???USGS5110011.79 Unspecified NONE
7752001-09-14 16:28PSTYes???USGS3770012.00 Unspecified NONE
7742001-09-14 16:18PSTYes???USGS2370012.08 Unspecified NONE
7732001-09-14 16:08PSTYes???USGS884012.15 Unspecified NONE
7722001-09-14 15:59PSTYes???USGS-678012.24 Unspecified NONE
7712001-09-14 15:49PSTYes???USGS-2050012.31 Unspecified NONE
7702001-09-14 15:39PSTYes???USGS-3420012.38 Unspecified NONE
7692001-09-14 15:29PSTYes???USGS-4720012.43 Unspecified NONE
7682001-09-14 15:20PSTYes???USGS-5780012.48 Unspecified NONE
7672001-09-14 15:10PSTYes???USGS-6810012.52 Unspecified NONE
7662001-09-14 15:00PSTYes???USGS-7750012.54 Unspecified NONE
7652001-09-14 14:50PSTYes???USGS-8550012.54 Unspecified NONE
7642001-09-14 14:40PSTYes???USGS-9200012.54 Unspecified NONE
7632001-09-14 14:29PSTYes???USGS-10000012.53 Unspecified NONE
7622001-09-14 14:20PSTYes???USGS-10400012.50 Unspecified NONE
7612001-09-14 14:10PSTYes???USGS-11000012.34 Unspecified NONE
7602001-09-14 14:00PSTYes???USGS-11600012.43 Unspecified NONE
7592001-09-14 13:51PSTYes???USGS-11900012.34 Unspecified NONE
7582001-09-14 13:42PSTYes???USGS-12000012.35 Unspecified NONE
7572001-09-14 13:33PSTYes???USGS-12500012.32 Unspecified NONE
7562001-09-14 13:21PSTYes???USGS-12700012.26 Unspecified NONE
7552001-09-14 13:12PSTYes???USGS-12900012.19 Unspecified NONE
7542001-09-14 13:03PSTYes???USGS-13100012.15 Unspecified NONE
7532001-09-14 12:53PSTYes???USGS-13500012.09 Unspecified NONE
7522001-09-14 12:42PSTYes???USGS-13300012.02 Unspecified NONE
7512001-09-14 12:31PSTYes???USGS-13500011.97 Unspecified NONE
7502001-09-14 12:19PSTYes???USGS-13400011.88 Unspecified NONE
7492001-09-14 12:07PSTYes???USGS-13500011.81 Unspecified NONE
7482001-09-14 11:55PSTYes???USGS-13100011.75 Unspecified NONE
7472001-09-14 11:42PSTYes???USGS-12900011.68 Unspecified NONE
7462001-09-14 11:30PSTYes???USGS-12500011.63 Unspecified NONE
7452001-09-14 11:03PSTYes???USGS-10500011.48 Unspecified NONE
7442001-09-14 10:52PSTYes???USGS-9540011.41 Unspecified NONE
7432001-09-14 10:42PSTYes???USGS-8360011.34 Unspecified NONE
7422001-09-14 10:33PSTYes???USGS-6930011.25 Unspecified NONE
7412001-09-14 10:23PSTYes???USGS-5830011.14 Unspecified NONE
7402001-09-14 10:14PSTYes???USGS-3340010.98 Unspecified NONE
7392001-09-14 10:05PSTYes???USGS-2040010.93 Unspecified NONE
7382001-09-14 09:55PSTYes???USGS-88.010.79 Unspecified NONE
7372001-09-14 09:46PSTYes???USGS1920010.66 Unspecified NONE
7362001-09-14 09:37PSTYes???USGS3620010.53 Unspecified NONE
7352001-09-14 09:27PSTYes???USGS5370010.40 Unspecified NONE
7342001-09-14 09:15PSTYes???USGS6940010.25 Unspecified NONE
7332001-09-14 09:04PSTYes???USGS8370010.14 Unspecified NONE
7322001-09-14 08:53PSTYes???USGS9270010.07 Unspecified NONE
7312001-09-14 08:41PSTYes???USGS10300010.04 Unspecified NONE
7302001-09-14 08:30PSTYes???USGS10900010.05 Unspecified NONE
7292001-09-14 08:19PSTYes???USGS11200010.02 Unspecified NONE
7282001-09-14 08:05PSTYes???USGS12200010.11 Unspecified NONE
7272001-03-12 17:06PSTYes???USGS-14000012.79 Unspecified NONE
7262001-03-12 16:58PSTYes???USGS-14300012.75 Unspecified NONE
7252001-03-12 16:49PSTYes???USGS-14400012.70 Unspecified NONE
7242001-03-12 16:40PSTYes???USGS-14400012.64 Unspecified NONE
7232001-03-12 16:32PSTYes???USGS-14200012.58 Unspecified NONE
7222001-03-12 16:23PSTYes???USGS-14300012.54 Unspecified NONE
7212001-03-12 16:14PSTYes???USGS-14100012.49 Unspecified NONE
7202001-03-12 16:06PSTYes???USGS-14100012.44 Unspecified NONE
7192001-03-12 15:57PSTYes???USGS-13600012.39 Unspecified NONE
7182001-03-12 15:48PSTYes???USGS-13400012.35 Unspecified NONE
7172001-03-12 15:39PSTYes???USGS-12800012.31 Unspecified NONE
7162001-03-12 15:31PSTYes???USGS-12500012.26 Unspecified NONE
7152001-03-12 15:23PSTYes???USGS-11600012.21 Unspecified NONE
7142001-03-12 15:14PSTYes???USGS-10800012.15 Unspecified NONE
7132001-03-12 15:06PSTYes???USGS-9580012.09 Unspecified NONE
7122001-03-12 14:57PSTYes???USGS-8580012.01 Unspecified NONE
7112001-03-12 14:49PSTYes???USGS-7750011.93 Unspecified NONE
7102001-03-12 14:42PSTYes???USGS-5600011.84 Unspecified NONE
7092001-03-12 14:35PSTYes???USGS-4180011.74 Unspecified NONE
7082001-03-12 14:26PSTYes???USGS-2740011.59 Unspecified NONE
7072001-03-12 14:19PSTYes???USGS-822011.55 Unspecified NONE
7062001-03-12 14:12PSTYes???USGS477011.45 Unspecified NONE
7052001-03-12 14:05PSTYes???USGS2310011.34 Unspecified NONE
7042001-03-12 13:58PSTYes???USGS3300011.22 Unspecified NONE
7032001-03-12 13:51PSTYes???USGS5060011.09 Unspecified NONE
7022001-03-12 13:43PSTYes???USGS6110010.99 Unspecified NONE
7012001-03-12 13:35PSTYes???USGS7290010.90 Unspecified NONE
7002001-03-12 13:26PSTYes???USGS8090010.79 Unspecified NONE
6992000-08-07 13:13PSTYes???USGS8150011.67 Unspecified NONE
6982000-08-07 13:05PSTYes???USGS7780011.72 Unspecified NONE
6972000-08-07 12:55PSTYes???USGS7120011.78 Unspecified NONE
6962000-08-07 12:47PSTYes???USGS6520011.84 Unspecified NONE
6952000-08-07 12:39PSTYes???USGS5740011.89 Unspecified NONE
6942000-08-07 12:30PSTYes???USGS4580011.95 Unspecified NONE
6932000-08-07 12:09PSTYes???USGS2340012.10 Unspecified NONE
6922000-08-07 12:01PSTYes???USGS1170012.15 Unspecified NONE
6912000-08-02 13:12PSTYes???USGS9390010.52 Unspecified NONE
6902000-08-02 13:03PSTYes???USGS10400010.46 Unspecified NONE
6892000-08-02 12:51PSTYes???USGS11400010.40 Unspecified NONE
6882000-08-02 12:45PSTYes???USGS12100010.38 Unspecified NONE
6872000-08-02 11:40PSTYes???USGS14500010.58 Unspecified NONE
6862000-08-02 11:30PSTYes???USGS14800010.65 Unspecified NONE
6852000-08-02 11:21PSTYes???USGS14800010.72 Unspecified NONE
6842000-08-02 11:04PSTYes???USGS15100010.86 Unspecified NONE
6832000-08-02 10:57PSTYes???USGS15100010.93 Unspecified NONE
6822000-08-02 10:31PSTYes???USGS15400011.16 Unspecified NONE
6812000-08-02 10:23PSTYes???USGS15600011.24 Unspecified NONE
6802000-08-02 10:01PSTYes???USGS15700011.43 Unspecified NONE
6792000-04-07 12:48PSTYes???USGS1220009.96 Unspecified NONE
6782000-04-07 12:41PSTYes???USGS1240009.95 Unspecified NONE
6772000-04-07 12:35PSTYes???USGS1270009.95 Unspecified NONE
6762000-04-07 12:28PSTYes???USGS1270009.97 Unspecified NONE
6752000-04-07 12:22PSTYes???USGS13200010.00 Unspecified NONE
6742000-04-07 12:16PSTYes???USGS1330009.92 Unspecified NONE
6732000-04-07 12:10PSTYes???USGS13500010.04 Unspecified NONE
6722000-04-07 12:03PSTYes???USGS13800010.07 Unspecified NONE
6712000-04-07 11:57PSTYes???USGS13700010.03 Unspecified NONE
6702000-04-07 11:50PSTYes???USGS13900010.15 Unspecified NONE
6692000-04-07 09:23PSTYes???USGS14800011.42 Unspecified NONE
6682000-04-07 09:17PSTYes???USGS15000011.48 Unspecified NONE
6672000-04-07 09:10PSTYes???USGS15200011.53 Unspecified NONE
6662000-04-07 09:03PSTYes???USGS15100011.58 Unspecified NONE
6652000-04-07 08:54PSTYes???USGS14800011.66 Unspecified NONE
6642000-04-07 08:46PSTYes???USGS14700011.72 Unspecified NONE
6632000-04-07 08:38PSTYes???USGS14300011.76 Unspecified NONE
6622000-04-07 08:30PSTYes???USGS14200011.84 Unspecified NONE
6611999-08-19 13:13PSTYes???USGS4890011.61 Unspecified NONE
6601999-08-19 13:07PSTYes???USGS4300011.64 Unspecified NONE
6591999-08-19 13:02PSTYes???USGS4150011.68 Unspecified NONE
6581999-08-19 12:56PSTYes???USGS3410011.71 Unspecified NONE
6571999-08-19 11:56PSTYes???USGS-2870012.00 Unspecified NONE
6561999-08-19 11:50PSTYes???USGS-3370012.02 Unspecified NONE
6551999-08-19 11:44PSTYes???USGS-3860012.03 Unspecified NONE
6541999-08-19 11:38PSTYes???USGS-4540012.04 Unspecified NONE
6531999-08-19 10:37PSTYes???USGS-8860012.04 Unspecified NONE
6521999-08-19 10:30PSTYes???USGS-9240012.02 Unspecified NONE
6511999-08-19 10:22PSTYes???USGS-9300012.01 Unspecified NONE
6501999-08-19 10:16PSTYes???USGS-9740011.99 Unspecified NONE
6491999-08-19 09:06PSTYes???USGS-10900011.69 Unspecified NONE
6481999-08-19 08:58PSTYes???USGS-10800011.66 Unspecified NONE
6471999-08-19 08:51PSTYes???USGS-10600011.63 Unspecified NONE
6461999-08-19 08:44PSTYes???USGS-10600011.60 Unspecified NONE
6451998-05-11 12:25PSTYes???USGS2870011.46 Unspecified NONE
6441998-05-11 12:16PSTYes???USGS4620011.31 Unspecified NONE
6431998-05-11 12:08PSTYes???USGS5860011.20 Unspecified NONE
6421998-05-11 12:02PSTYes???USGS6400011.12 Unspecified NONE
6411998-05-11 11:55PSTYes???USGS7870011.02 Unspecified NONE
6401998-05-11 11:48PSTYes???USGS8590010.90 Unspecified NONE
6391998-05-11 11:42PSTYes???USGS9420010.87 Unspecified NONE
6381998-05-11 11:35PSTYes???USGS9960010.79 Unspecified NONE
6371998-05-11 11:28PSTYes???USGS10800010.77 Unspecified NONE
6361998-05-11 11:22PSTYes???USGS10800010.73 Unspecified NONE
6351998-05-11 11:13PSTYes???USGS12000010.71 Unspecified NONE
6341998-05-11 11:05PSTYes???USGS12800010.69 Unspecified NONE
6331998-05-11 10:56PSTYes???USGS13300010.68 Unspecified NONE
6321998-05-11 10:49PSTYes???USGS13200010.67 Unspecified NONE
6311998-05-11 10:41PSTYes???USGS14300010.68 Unspecified NONE
6301998-05-11 10:34PSTYes???USGS14200010.68 Unspecified NONE
6291998-05-11 10:27PSTYes???USGS14600010.71 Unspecified NONE
6281998-05-11 10:19PSTYes???USGS14300010.73 Unspecified NONE
6271998-05-11 10:11PSTYes???USGS14600010.77 Unspecified NONE
6261998-05-11 10:02PSTYes???USGS15100010.82 Unspecified NONE
6251998-05-11 09:53PSTYes???USGS14900010.87 Unspecified NONE
6241998-05-11 09:45PSTYes???USGS15200010.91 Unspecified NONE
6231998-05-11 09:37PSTYes???USGS16200010.96 Unspecified NONE
6221998-05-11 09:29PSTYes???USGS16100011.02 Unspecified NONE
6211998-05-11 08:56PSTYes???USGS16100011.27 Unspecified NONE
6201998-05-11 08:48PSTYes???USGS16100011.34 Unspecified NONE
6191998-05-11 08:35PSTYes???USGS16600011.45 Unspecified NONE
6181998-05-11 08:28PSTYes???USGS15600011.53 Unspecified NONE
6171998-03-16 14:36PSTYes???USGS-1130012.47 Unspecified NONE
6161998-03-16 14:36PSTYes???USGS-1090012.47 Unspecified NONE
6151998-03-16 14:29PSTYes???USGS13612.38 Unspecified NONE
6141998-03-16 14:28PSTYes???USGS134012.38 Unspecified NONE
6131998-03-16 14:21PSTYes???USGS1620012.29 Unspecified NONE
6121998-03-16 14:21PSTYes???USGS1620012.29 Unspecified NONE
6111998-03-16 14:14PSTYes???USGS2890012.19 Unspecified NONE
6101998-03-16 14:14PSTYes???USGS2490012.19 Unspecified NONE
6091998-03-16 14:07PSTYes???USGS3880012.10 Unspecified NONE
6081998-03-16 14:07PSTYes???USGS3850012.10 Unspecified NONE
6071998-03-16 13:56PSTYes???USGS5520011.96 Unspecified NONE
6061998-03-16 13:56PSTYes???USGS5440011.96 Unspecified NONE
6051998-03-16 13:48PSTYes???USGS6640011.88 Unspecified NONE
6041998-03-16 13:48PSTYes???USGS6410011.88 Unspecified NONE
6031998-03-16 13:39PSTYes???USGS7640011.79 Unspecified NONE
6021998-03-16 13:39PSTYes???USGS7610011.79 Unspecified NONE
6011998-03-16 13:31PSTYes???USGS8580011.70 Unspecified NONE
6001998-03-16 13:31PSTYes???USGS8350011.70 Unspecified NONE
5991998-03-16 13:19PSTYes???USGS9740011.62 Unspecified NONE
5981998-03-16 13:19PSTYes???USGS9520011.62 Unspecified NONE
5971998-03-16 13:09PSTYes???USGS10600011.56 Unspecified NONE
5961998-03-16 13:09PSTYes???USGS10500011.56 Unspecified NONE
5951998-03-13 15:39PSTYes???USGS-12100014.24 Unspecified NONE
5941998-03-13 15:39PSTYes???USGS-11900014.24 Unspecified NONE
5931998-03-13 15:29PSTYes???USGS-12400014.21 Unspecified NONE
5921998-03-13 15:29PSTYes???USGS-12300014.21 Unspecified NONE
5911998-03-13 15:20PSTYes???USGS-13000014.17 Unspecified NONE
5901998-03-13 15:20PSTYes???USGS-12800014.17 Unspecified NONE
5891998-03-13 15:11PSTYes???USGS-13000014.13 Unspecified NONE
5881998-03-13 15:11PSTYes???USGS-12900014.13 Unspecified NONE
5871998-03-13 14:57PSTYes???USGS-13700014.05 Unspecified NONE
5861998-03-13 14:57PSTYes???USGS-13100014.05 Unspecified NONE
5851998-03-13 14:47PSTYes???USGS-13600014.01 Unspecified NONE
5841998-03-13 14:47PSTYes???USGS-13200014.01 Unspecified NONE
5831998-02-24 17:11PSTYes???USGS17900014.49 Unspecified NONE
5821998-02-24 17:03PSTYes???USGS17900014.56 Unspecified NONE
5811998-02-24 16:54PSTYes???USGS17500014.63 Unspecified NONE
5801998-02-24 16:46PSTYes???USGS16900014.70 Unspecified NONE
5791998-02-24 16:37PSTYes???USGS16700014.77 Unspecified NONE
5781998-02-24 15:45PSTYes???USGS13800015.14 Unspecified NONE
5771998-02-24 15:34PSTYes???USGS11700015.22 Unspecified NONE
5761998-02-24 15:22PSTYes???USGS10800015.30 Unspecified NONE
5751998-02-24 15:12PSTYes???USGS9350015.38 Unspecified NONE
5741998-02-24 15:02PSTYes???USGS7840015.45 Unspecified NONE
5731998-02-24 14:50PSTYes???USGS5920015.50 Unspecified NONE
5721998-02-24 14:41PSTYes???USGS4010015.59 Unspecified NONE
5711998-02-24 14:19PSTYes???USGS-982015.75 Unspecified NONE
5701998-02-24 14:10PSTYes???USGS-2600015.79 Unspecified NONE
5691998-02-24 12:48PSTYes???USGS-12000015.85 Unspecified NONE
5681998-02-24 12:48PSTYes???USGS-11300015.85 Unspecified NONE
5671998-02-24 12:39PSTYes???USGS-11900015.83 Unspecified NONE
5661998-02-24 12:39PSTYes???USGS-11300015.82 Unspecified NONE
5651998-02-24 11:48PSTYes???USGS-10900015.54 Unspecified NONE
5641998-02-24 11:47PSTYes???USGS-10500015.54 Unspecified NONE
5631998-02-24 11:37PSTYes???USGS-9990015.48 Unspecified NONE
5621998-02-24 11:37PSTYes???USGS-10700015.48 Unspecified NONE
5611998-02-24 11:26PSTYes???USGS-9410015.40 Unspecified NONE
5601998-02-24 11:26PSTYes???USGS-9130015.40 Unspecified NONE
5591998-02-09 12:23PSTYes???USGS-5240016.00 Unspecified NONE
5581998-02-09 12:15PSTYes???USGS-5080015.95 Unspecified NONE
5571998-02-09 12:07PSTYes???USGS-4450015.88 Unspecified NONE
5561998-02-09 11:58PSTYes???USGS-3160015.80 Unspecified NONE
5551998-02-09 11:49PSTYes???USGS-2280015.71 Unspecified NONE
5541998-02-09 11:25PSTYes???USGS1210015.45 Unspecified NONE
5531998-02-09 11:16PSTYes???USGS2510015.36 Unspecified NONE
5521998-02-09 11:01PSTYes???USGS4670015.18 Unspecified NONE
5511998-01-20 15:30PSTYes???USGS-12900012.55 Unspecified NONE
5501998-01-20 15:19PSTYes???USGS-12900012.61 Unspecified NONE
5491998-01-20 14:32PSTYes???USGS13500012.85 Unspecified NONE
5481998-01-20 14:22PSTYes???USGS13700012.91 Unspecified NONE
5471998-01-20 14:11PSTYes???USGS-13600012.99 Unspecified NONE
5461998-01-20 14:01PSTYes???USGS-13600013.06 Unspecified NONE
5451998-01-20 13:43PSTYes???USGS13200013.16 Unspecified NONE
5441998-01-20 13:31PSTYes???USGS13400013.23 Unspecified NONE
5431998-01-20 13:21PSTYes???USGS-13100013.29 Unspecified NONE
5421998-01-20 13:10PSTYes???USGS-12900013.36 Unspecified NONE
5411998-01-20 12:43PSTYes???USGS-12000013.51 Unspecified NONE
5401998-01-20 12:32PSTYes???USGS11600013.58 Unspecified NONE
5391998-01-20 12:23PSTYes???USGS10900013.63 Unspecified NONE
5381998-01-20 12:13PSTYes???USGS-10100013.69 Unspecified NONE
5371998-01-20 12:03PSTYes???USGS-9170013.76 Unspecified NONE
5361997-08-19 12:54PSTYes???USGS-1060011.73 Unspecified NONE
5351997-08-19 12:48PSTYes???USGS411011.62 Unspecified NONE
5341997-08-19 12:42PSTYes???USGS1700011.52 Unspecified NONE
5331997-08-19 12:36PSTYes???USGS3150011.42 Unspecified NONE
5321997-08-19 12:29PSTYes???USGS4520011.31 Unspecified NONE
5311997-08-19 12:22PSTYes???USGS5780011.19 Unspecified NONE
5301997-08-19 12:15PSTYes???USGS6880011.07 Unspecified NONE
5291997-08-19 12:08PSTYes???USGS8160010.97 Unspecified NONE
5281997-08-19 12:01PSTYes???USGS9260010.89 Unspecified NONE
5271997-08-19 11:54PSTYes???USGS9870010.81 Unspecified NONE
5261997-08-19 11:47PSTYes???USGS10900010.74 Unspecified NONE
5251997-08-19 11:39PSTYes???USGS11300010.70 Unspecified NONE
5241997-08-19 08:54PSTYes???USGS15100011.72 Unspecified NONE
5231997-08-19 08:47PSTYes???USGS15500011.79 Unspecified NONE
5221997-08-19 08:41PSTYes???USGS15300011.85 Unspecified NONE
5211997-08-19 08:34PSTYes???USGS15400011.90 Unspecified NONE
5201997-08-19 08:27PSTYes???USGS15400011.97 Unspecified NONE
5191997-08-19 08:20PSTYes???USGS15100012.03 Unspecified NONE
5181997-08-19 08:13PSTYes???USGS15300012.09 Unspecified NONE
5171997-08-19 08:07PSTYes???USGS15300012.15 Unspecified NONE
5161997-08-19 08:00PSTYes???USGS15300012.21 Unspecified NONE
5151997-08-19 07:53PSTYes???USGS15000012.27 Unspecified NONE
5141997-08-19 07:46PSTYes???USGS15200012.34 Unspecified NONE
5131997-08-19 07:39PSTYes???USGS15200012.39 Unspecified NONE
5121997-08-19 07:32PSTYes???USGS14700012.45 Unspecified NONE
5111997-08-19 07:25PSTYes???USGS15000012.50 Unspecified NONE
5101997-08-12 14:10PSTYes???USGS6750012.16 Unspecified NONE
5091997-08-12 14:04PSTYes???USGS7200012.19 Unspecified NONE
5081997-08-12 13:59PSTYes???USGS6860012.23 Unspecified NONE
5071997-08-12 13:53PSTYes???USGS6510012.25 Unspecified NONE
5061997-08-12 13:47PSTYes???USGS6090012.28 Unspecified NONE
5051997-08-12 13:41PSTYes???USGS6200012.31 Unspecified NONE
5041997-08-12 13:36PSTYes???USGS5180012.34 Unspecified NONE
5031997-08-12 13:30PSTYes???USGS6150012.38 Unspecified NONE
5021997-08-12 13:24PSTYes???USGS4770012.41 Unspecified NONE
5011997-08-12 13:18PSTYes???USGS4000012.45 Unspecified NONE
5001997-08-12 13:12PSTYes???USGS3650012.48 Unspecified NONE
4991997-08-12 13:06PSTYes???USGS2600012.52 Unspecified NONE
4981997-08-12 13:00PSTYes???USGS1630012.55 Unspecified NONE
4971997-08-12 12:54PSTYes???USGS1730012.58 Unspecified NONE
4961997-08-12 11:03PSTYes???USGS-10500012.85 Unspecified NONE
4951997-08-12 10:57PSTYes???USGS-10600012.85 Unspecified NONE
4941997-08-12 10:03PSTYes???USGS-11000012.69 Unspecified NONE
4931997-08-12 09:57PSTYes???USGS-11100012.66 Unspecified NONE
4921997-08-12 09:51PSTYes???USGS-10800012.63 Unspecified NONE
4911997-08-12 09:45PSTYes???USGS-10700012.61 Unspecified NONE
4901997-08-12 09:40PSTYes???USGS-9950012.59 Unspecified NONE
4891997-08-12 09:34PSTYes???USGS-10900012.56 Unspecified NONE
4881997-08-12 09:28PSTYes???USGS-10900012.53 Unspecified NONE
4871997-08-12 09:22PSTYes???USGS-10400012.51 Unspecified NONE
4861997-08-12 09:01PSTYes???USGS-9730012.41 Unspecified NONE
4851997-08-12 08:55PSTYes???USGS-9320012.39 Unspecified NONE
4841997-08-12 08:50PSTYes???USGS-9130012.36 Unspecified NONE
4831997-08-12 08:44PSTYes???USGS-9220012.34 Unspecified NONE
4821997-08-12 08:38PSTYes???USGS-8710012.31 Unspecified NONE
4811997-08-12 08:32PSTYes???USGS-8030012.29 Unspecified NONE
4801997-08-12 08:21PSTYes???USGS-7900012.23 Unspecified NONE
4791997-08-12 08:15PSTYes???USGS-7280012.21 Unspecified NONE
4781997-08-12 08:04PSTYes???USGS-6700012.15 Unspecified NONE
4771997-08-12 07:59PSTYes???USGS-6060012.10 Unspecified NONE
4761997-08-12 07:53PSTYes???USGS-5900012.06 Unspecified NONE
4751997-08-12 07:47PSTYes???USGS-5130012.03 Unspecified NONE
4741997-08-12 07:41PSTYes???USGS-4050011.93 Unspecified NONE
4731997-08-12 07:36PSTYes???USGS-3460011.94 Unspecified NONE
4721997-08-11 15:08PSTYes???USGS6940011.75 Unspecified NONE
4711997-08-11 15:02PSTYes???USGS7490011.74 Unspecified NONE
4701997-08-11 14:53PSTYes???USGS7630011.73 Unspecified NONE
4691997-08-11 14:47PSTYes???USGS7940011.71 Unspecified NONE
4681997-08-11 14:41PSTYes???USGS8250011.73 Unspecified NONE
4671997-08-11 14:35PSTYes???USGS8110011.68 Unspecified NONE
4661997-08-11 14:28PSTYes???USGS7960011.74 Unspecified NONE
4651997-08-11 14:22PSTYes???USGS9020011.75 Unspecified NONE
4641997-08-11 14:17PSTYes???USGS9370011.76 Unspecified NONE
4631997-08-11 14:11PSTYes???USGS9160011.77 Unspecified NONE
4621997-08-11 14:04PSTYes???USGS9160011.78 Unspecified NONE
4611997-08-11 13:59PSTYes???USGS9230011.80 Unspecified NONE
4601997-08-11 13:52PSTYes???USGS9360011.82 Unspecified NONE
4591997-08-11 13:47PSTYes???USGS8480011.83 Unspecified NONE
4581997-08-11 13:32PSTYes???USGS8970011.89 Unspecified NONE
4571997-08-11 13:26PSTYes???USGS9080011.91 Unspecified NONE
4561997-08-11 13:20PSTYes???USGS9370011.93 Unspecified NONE
4551997-08-11 13:12PSTYes???USGS8810011.96 Unspecified NONE
4541997-08-11 13:06PSTYes???USGS8340011.99 Unspecified NONE
4531997-08-11 12:59PSTYes???USGS8520012.00 Unspecified NONE
4521997-08-11 12:54PSTYes???USGS8120012.05 Unspecified NONE
4511997-08-11 12:40PSTYes???USGS7580012.10 Unspecified NONE
4501997-08-11 12:33PSTYes???USGS7570012.15 Unspecified NONE
4491997-08-11 12:27PSTYes???USGS7570012.19 Unspecified NONE
4481997-08-11 12:21PSTYes???USGS6330012.22 Unspecified NONE
4471997-08-11 12:15PSTYes???USGS5250012.25 Unspecified NONE
4461997-08-11 12:09PSTYes???USGS5630012.29 Unspecified NONE
4451997-08-11 11:57PSTYes???USGS4890012.37 Unspecified NONE
4441997-08-11 11:48PSTYes???USGS3900012.41 Unspecified NONE
4431997-08-11 11:41PSTYes???USGS2590012.46 Unspecified NONE
4421997-08-11 11:35PSTYes???USGS2670012.49 Unspecified NONE
4411997-08-11 11:26PSTYes???USGS1050012.53 Unspecified NONE
4401997-08-11 11:20PSTYes???USGS537012.57 Unspecified NONE
4391997-08-11 11:03PSTYes???USGS-1750012.68 Unspecified NONE
4381997-08-11 10:56PSTYes???USGS-2350012.71 Unspecified NONE
4371997-08-11 10:42PSTYes???USGS-3870012.75 Unspecified NONE
4361997-08-11 10:36PSTYes???USGS-4020012.77 Unspecified NONE
4351997-08-11 10:29PSTYes???USGS-5120012.77 Unspecified NONE
4341997-08-11 10:23PSTYes???USGS-5250012.78 Unspecified NONE
4331997-08-11 10:16PSTYes???USGS-5870012.79 Unspecified NONE
4321996-09-17 13:43PSTYes???USGS-364011.39 Unspecified NONE
4311996-09-17 13:35PSTYes???USGS1210011.32 Unspecified NONE
4301996-09-17 13:27PSTYes???USGS2140011.22 Unspecified NONE
4291996-09-17 13:20PSTYes???USGS3560011.13 Unspecified NONE
4281996-09-17 13:12PSTYes???USGS4600011.05 Unspecified NONE
4271996-09-17 13:03PSTYes???USGS5440010.97 Unspecified NONE
4261996-09-17 12:55PSTYes???USGS6680010.91 Unspecified NONE
4251996-09-17 12:48PSTYes???USGS7370010.87 Unspecified NONE
4241996-09-17 12:40PSTYes???USGS7930010.83 Unspecified NONE
4231996-09-17 12:32PSTYes???USGS8060010.81 Unspecified NONE
4221996-09-17 12:24PSTYes???USGS8680010.79 Unspecified NONE
4211996-09-17 12:16PSTYes???USGS9170010.78 Unspecified NONE
4201996-09-17 12:07PSTYes???USGS9550010.80 Unspecified NONE
4191996-09-17 11:58PSTYes???USGS9730010.81 Unspecified NONE
4181996-09-17 11:51PSTYes???USGS10300010.83 Unspecified NONE
4171996-09-17 11:43PSTYes???USGS10800010.86 Unspecified NONE
4161996-09-17 11:34PSTYes???USGS10600010.89 Unspecified NONE
4151996-09-17 11:24PSTYes???USGS11200010.92 Unspecified NONE
4141996-09-17 11:16PSTYes???USGS11200010.98 Unspecified NONE
4131996-09-17 11:08PSTYes???USGS11200011.01 Unspecified NONE
4121996-09-17 10:58PSTYes???USGS11400011.07 Unspecified NONE
4111996-09-17 10:50PSTYes???USGS11500011.12 Unspecified NONE
4101996-09-17 10:41PSTYes???USGS11600011.16 Unspecified NONE
4091996-09-17 10:33PSTYes???USGS11700011.21 Unspecified NONE
4081996-09-17 10:24PSTYes???USGS11700011.27 Unspecified NONE
4071996-09-17 10:15PSTYes???USGS11400011.33 Unspecified NONE
4061996-09-17 10:07PSTYes???USGS11400011.38 Unspecified NONE
4051996-09-17 09:57PSTYes???USGS10900011.44 Unspecified NONE
4041996-09-17 09:31PSTYes???USGS9610011.60 Unspecified NONE
4031996-09-17 09:20PSTYes???USGS9030011.68 Unspecified NONE
4021996-09-17 09:09PSTYes???USGS8010011.77 Unspecified NONE
4011996-09-17 08:59PSTYes???USGS7230011.86 Unspecified NONE
4001996-09-17 08:49PSTYes???USGS5840011.96 Unspecified NONE
3991996-09-17 08:40PSTYes???USGS4650012.04 Unspecified NONE
3981996-08-30 07:21PSTYes???USGS12000012.08 Unspecified NONE
3971996-08-30 06:58PSTYes???USGS9070012.31 Unspecified NONE
3961996-08-30 06:51PSTYes???USGS8850012.38 Unspecified NONE
3951996-08-30 06:44PSTYes???USGS7560012.46 Unspecified NONE
3941996-08-30 06:37PSTYes???USGS7220012.55 Unspecified NONE
3931996-08-30 06:29PSTYes???USGS5690012.65 Unspecified NONE
3921996-08-29 13:42PSTYes???USGS-13300012.08 Unspecified NONE
3911996-08-29 12:36PSTYes???USGS-4820011.44 Unspecified NONE
3901996-08-29 12:25PSTYes???USGS-2380011.30 Unspecified NONE
3891996-08-29 12:15PSTYes???USGS508011.14 Unspecified NONE
3881996-08-29 11:59PSTYes???USGS3380010.85 Unspecified NONE
3871996-08-29 11:52PSTYes???USGS5210010.71 Unspecified NONE
3861996-08-29 11:43PSTYes???USGS6590010.56 Unspecified NONE
3851996-08-29 11:29PSTYes???USGS9030010.37 Unspecified NONE
3841996-08-29 10:01PSTYes???USGS12800010.35 Unspecified NONE
3831996-08-29 09:52PSTYes???USGS12900010.44 Unspecified NONE
3821996-08-29 08:39PSTYes???USGS14000011.06 Unspecified NONE
3811996-08-29 08:30PSTYes???USGS14100011.14 Unspecified NONE
3801996-08-29 08:22PSTYes???USGS14500011.20 Unspecified NONE
3791996-08-29 07:05PSTYes???USGS14200011.86 Unspecified NONE
3781996-08-29 06:57PSTYes???USGS13400011.93 Unspecified NONE
3771996-08-28 14:58PSTYes???USGS-14400012.75 Unspecified NONE
3761996-08-28 14:50PSTYes???USGS-14300012.70 Unspecified NONE
3751996-08-28 14:42PSTYes???USGS-14400012.64 Unspecified NONE
3741996-08-28 11:47PSTYes???USGS-858011.21 Unspecified NONE
3731996-08-28 11:40PSTYes???USGS637011.09 Unspecified NONE
3721996-08-28 11:31PSTYes???USGS2670010.94 Unspecified NONE
3711996-08-28 11:23PSTYes???USGS3950010.78 Unspecified NONE
3701996-08-28 11:15PSTYes???USGS5770010.63 Unspecified NONE
3691996-08-28 11:00PSTYes???USGS7950010.40 Unspecified NONE
3681996-08-28 10:52PSTYes???USGS8910010.31 Unspecified NONE
3671996-08-28 10:43PSTYes???USGS9740010.24 Unspecified NONE
3661996-08-28 10:35PSTYes???USGS10500010.18 Unspecified NONE
3651996-08-28 10:28PSTYes???USGS11200010.15 Unspecified NONE
3641996-08-28 10:20PSTYes???USGS11500010.14 Unspecified NONE
3631996-08-28 10:12PSTYes???USGS11900010.14 Unspecified NONE
3621996-08-28 10:03PSTYes???USGS12200010.15 Unspecified NONE
3611996-08-28 09:55PSTYes???USGS12900010.17 Unspecified NONE
3601996-08-28 09:47PSTYes???USGS12600010.20 Unspecified NONE
3591996-08-28 09:39PSTYes???USGS13000010.25 Unspecified NONE
3581996-08-28 09:29PSTYes???USGS13100010.30 Unspecified NONE
3571996-08-28 09:13PSTYes???USGS13400010.41 Unspecified NONE
3561996-08-28 09:05PSTYes???USGS13600010.47 Unspecified NONE
3551996-08-28 08:57PSTYes???USGS13800010.53 Unspecified NONE
3541996-08-28 08:50PSTYes???USGS13700010.59 Unspecified NONE
3531996-08-28 08:43PSTYes???USGS14000010.65 Unspecified NONE
3521996-08-28 08:35PSTYes???USGS13900010.72 Unspecified NONE
3511996-08-28 08:27PSTYes???USGS14000010.79 Unspecified NONE
3501996-08-28 08:10PSTYes???USGS14300010.95 Unspecified NONE
3491996-08-28 07:24PSTYes???USGS14300011.39 Unspecified NONE
3481996-08-28 07:15PSTYes???USGS14700011.46 Unspecified NONE
3471996-08-28 06:50PSTYes???USGS14500011.69 Unspecified NONE
3461996-08-28 06:40PSTYes???USGS14500011.80 Unspecified NONE
3451996-08-27 11:26PSTYes???USGS-4020011.62 Unspecified NONE
3441996-07-26 12:36PSTYes???USGS-11500012.75 Unspecified NONE
3431996-07-26 12:27PSTYes???USGS-11200012.72 Unspecified NONE
3421996-07-26 12:19PSTYes???USGS-11500012.69 Unspecified NONE
3411996-07-26 12:10PSTYes???USGS-10900012.66 Unspecified NONE
3401996-07-26 12:02PSTYes???USGS-11900012.62 Unspecified NONE
3391996-07-26 11:53PSTYes???USGS-12100012.57 Unspecified NONE
3381996-07-26 11:45PSTYes???USGS-12600012.53 Unspecified NONE
3371996-07-26 11:37PSTYes???USGS-11800012.48 Unspecified NONE
3361996-07-26 11:29PSTYes???USGS-12100012.45 Unspecified NONE
3351996-07-26 11:21PSTYes???USGS-12100012.39 Unspecified NONE
3341996-07-26 11:14PSTYes???USGS-12800012.34 Unspecified NONE
3331996-07-26 11:05PSTYes???USGS-12700012.31 Unspecified NONE
3321996-07-26 10:56PSTYes???USGS-12200012.26 Unspecified NONE
3311996-07-26 10:49PSTYes???USGS-12100012.21 Unspecified NONE
3301996-07-26 10:41PSTYes???USGS-12100012.19 Unspecified NONE
3291996-07-26 10:33PSTYes???USGS-11500012.15 Unspecified NONE
3281996-07-26 10:24PSTYes???USGS-11000012.10 Unspecified NONE
3271996-07-26 10:15PSTYes???USGS-9900012.07 Unspecified NONE
3261996-07-26 10:07PSTYes???USGS-10000012.03 Unspecified NONE
3251996-07-26 10:00PSTYes???USGS-8680011.99 Unspecified NONE
3241996-07-25 13:29PSTYes???USGS884012.27 Unspecified NONE
3231996-07-25 13:20PSTYes???USGS-214012.33 Unspecified NONE
3221996-07-25 13:11PSTYes???USGS-1270012.38 Unspecified NONE
3211996-07-25 13:02PSTYes???USGS-2260012.43 Unspecified NONE
3201996-07-25 12:53PSTYes???USGS-3260012.46 Unspecified NONE
3191996-07-25 12:44PSTYes???USGS-4360012.51 Unspecified NONE
3181996-07-25 12:35PSTYes???USGS-5490012.53 Unspecified NONE
3171996-07-25 12:26PSTYes???USGS-5660012.56 Unspecified NONE
3161996-07-25 12:15PSTYes???USGS-7150012.57 Unspecified NONE
3151996-07-25 12:07PSTYes???USGS-7540012.57 Unspecified NONE
3141996-07-25 11:58PSTYes???USGS-8290012.57 Unspecified NONE
3131996-07-25 11:50PSTYes???USGS-8730012.56 Unspecified NONE
3121996-07-25 11:00PSTYes???USGS-10600012.43 Unspecified NONE
3111996-07-25 10:49PSTYes???USGS-11200012.37 Unspecified NONE
3101996-07-25 10:39PSTYes???USGS-11000012.35 Unspecified NONE
3091996-07-25 10:29PSTYes???USGS-11500012.31 Unspecified NONE
3081996-07-25 10:18PSTYes???USGS-11400012.26 Unspecified NONE
3071996-07-25 08:55PSTYes???USGS-7930011.88 Unspecified NONE
3061996-07-25 08:48PSTYes???USGS-7250011.84 Unspecified NONE
3051996-07-25 08:42PSTYes???USGS-6380011.78 Unspecified NONE
3041996-06-28 13:59PSTYes???USGS-11100012.31 Unspecified NONE
3031996-06-28 13:48PSTYes???USGS-11700012.29 Unspecified NONE
3021996-06-28 12:00PSTYes???USGS-12200011.74 Unspecified NONE
3011996-06-28 11:49PSTYes???USGS-11600011.69 Unspecified NONE
3001996-06-28 11:39PSTYes???USGS-10800011.63 Unspecified NONE
2991996-06-28 11:28PSTYes???USGS-10400011.57 Unspecified NONE
2981996-06-28 11:15PSTYes???USGS-8590011.48 Unspecified NONE
2971996-06-28 11:04PSTYes???USGS-7580011.39 Unspecified NONE
2961996-06-28 10:55PSTYes???USGS-6500011.29 Unspecified NONE
2951996-06-28 08:20PSTYes???USGS12700010.11 Unspecified NONE
2941996-06-28 08:06PSTYes???USGS12800010.16 Unspecified NONE
2931996-06-28 07:46PSTYes???USGS13500010.25 Unspecified NONE
2921996-06-28 07:31PSTYes???USGS13400010.36 Unspecified NONE
2911996-06-28 05:54PSTYes???USGS14900011.21 Unspecified NONE
2901996-06-28 05:42PSTYes???USGS14600011.33 Unspecified NONE
2891996-06-27 15:00PSTYes???USGS996011.97 Unspecified NONE
2881996-06-27 14:51PSTYes???USGS-224012.04 Unspecified NONE
2871996-06-27 14:42PSTYes???USGS-1320012.10 Unspecified NONE
2861996-06-27 14:34PSTYes???USGS-2700012.16 Unspecified NONE
2851996-06-27 14:25PSTYes???USGS-3760012.20 Unspecified NONE
2841996-06-27 14:16PSTYes???USGS-4910012.23 Unspecified NONE
2831996-06-27 12:42PSTYes???USGS-11400012.22 Unspecified NONE
2821996-06-27 12:32PSTYes???USGS-11700012.18 Unspecified NONE
2811996-06-27 12:23PSTYes???USGS-12000012.14 Unspecified NONE
2801996-06-27 12:13PSTYes???USGS-12200012.09 Unspecified NONE
2791996-06-27 10:48PSTYes???USGS-10800011.68 Unspecified NONE
2781996-06-27 10:38PSTYes???USGS-9720011.63 Unspecified NONE
2771996-06-27 10:29PSTYes???USGS-9440011.58 Unspecified NONE
2761996-06-27 10:19PSTYes???USGS-7960011.53 Unspecified NONE
2751996-06-27 08:47PSTYes???USGS6250010.56 Unspecified NONE
2741996-06-27 08:33PSTYes???USGS8020010.43 Unspecified NONE
2731996-06-27 08:23PSTYes???USGS8760010.37 Unspecified NONE
2721996-06-27 08:13PSTYes???USGS9890010.32 Unspecified NONE
2711996-06-06 10:51PSTYes???USGS14500011.83 Unspecified NONE
2701996-06-06 10:43PSTYes???USGS14600011.91 Unspecified NONE
2691996-06-06 10:35PSTYes???USGS14200011.98 Unspecified NONE
2681996-06-06 10:27PSTYes???USGS14200012.06 Unspecified NONE
2671996-06-06 10:19PSTYes???USGS14000012.12 Unspecified NONE
2661996-06-06 10:11PSTYes???USGS13900012.19 Unspecified NONE
2651996-06-06 10:04PSTYes???USGS13600012.25 Unspecified NONE
2641996-06-06 09:56PSTYes???USGS13000012.31 Unspecified NONE
2631996-06-06 09:50PSTYes???USGS13200012.36 Unspecified NONE
2621996-06-06 09:42PSTYes???USGS12800012.42 Unspecified NONE
2611996-06-06 09:35PSTYes???USGS12000012.47 Unspecified NONE
2601996-06-06 09:28PSTYes???USGS11100012.54 Unspecified NONE
2591996-06-06 09:20PSTYes???USGS11400012.61 Unspecified NONE
2581996-06-06 09:13PSTYes???USGS10400012.68 Unspecified NONE
2571996-06-06 09:06PSTYes???USGS9920012.74 Unspecified NONE
2561996-06-06 08:59PSTYes???USGS8670012.81 Unspecified NONE
2551996-06-06 08:52PSTYes???USGS8340012.90 Unspecified NONE
2541996-06-06 08:45PSTYes???USGS6960012.99 Unspecified NONE
2531996-06-06 08:38PSTYes???USGS6410013.07 Unspecified NONE
2521996-06-06 08:31PSTYes???USGS4680013.14 Unspecified NONE
2511996-06-06 08:24PSTYes???USGS3980013.24 Unspecified NONE
2501996-06-06 08:17PSTYes???USGS2190013.33 Unspecified NONE
2491996-06-06 08:08PSTYes???USGS658013.42 Unspecified NONE
2481996-06-06 07:54PSTYes???USGS-1890013.57 Unspecified NONE
2471996-06-06 07:54PSTYes???USGS-1110013.57 Unspecified NONE
2461996-06-06 07:47PSTYes???USGS-2880013.65 Unspecified NONE
2451996-06-06 07:41PSTYes???USGS-3810013.71 Unspecified NONE
2441996-06-06 07:34PSTYes???USGS-5050013.77 Unspecified NONE
2431996-06-05 12:00PSTYes???USGS14500010.78 Unspecified NONE
2421996-06-05 11:51PSTYes???USGS15200010.86 Unspecified NONE
2411996-06-05 11:42PSTYes???USGS14400010.95 Unspecified NONE
2401996-06-05 11:33PSTYes???USGS15000011.03 Unspecified NONE
2391996-06-05 11:24PSTYes???USGS15100011.12 Unspecified NONE
2381996-06-05 11:15PSTYes???USGS15300011.20 Unspecified NONE
2371996-06-05 10:58PSTYes???USGS14900011.38 Unspecified NONE
2361996-06-05 10:49PSTYes???USGS15200011.47 Unspecified NONE
2351996-06-05 10:40PSTYes???USGS15000011.56 Unspecified NONE
2341996-06-05 10:30PSTYes???USGS15300011.65 Unspecified NONE
2331996-06-05 10:21PSTYes???USGS15100011.74 Unspecified NONE
2321996-06-05 10:11PSTYes???USGS15500011.83 Unspecified NONE
2311996-06-05 10:00PSTYes???USGS15200011.92 Unspecified NONE
2301996-06-05 09:50PSTYes???USGS15400012.02 Unspecified NONE
2291996-06-05 09:41PSTYes???USGS14500012.11 Unspecified NONE
2281996-04-23 11:36PSTYes???USGS13500011.09 Unspecified NONE
2271996-04-23 11:23PSTYes???USGS13600011.19 Unspecified NONE
2261996-04-23 09:09PSTYes???USGS8950012.26 Unspecified NONE
2251996-04-23 09:00PSTYes???USGS8250012.33 Unspecified NONE
2241996-04-23 08:52PSTYes???USGS7310012.39 Unspecified NONE
2231996-04-23 06:47PSTYes???USGS-7600013.14 Unspecified NONE
2221996-04-23 06:38PSTYes???USGS-8100013.14 Unspecified NONE
2211996-04-22 15:06PSTYes???USGS7030010.28 Unspecified NONE
2201996-04-22 14:58PSTYes???USGS8020010.18 Unspecified NONE
2191996-04-22 14:49PSTYes???USGS8960010.12 Unspecified NONE
2181996-04-22 11:38PSTYes???USGS14100010.79 Unspecified NONE
2171996-04-22 11:26PSTYes???USGS14500010.89 Unspecified NONE
2161996-04-22 11:14PSTYes???USGS14200011.00 Unspecified NONE
2151996-04-22 11:02PSTYes???USGS14400011.10 Unspecified NONE
2141996-04-22 10:50PSTYes???USGS14200011.21 Unspecified NONE
2131996-04-22 10:37PSTYes???USGS14400011.31 Unspecified NONE
2121995-03-31 13:55PSTYes???USGS-8470013.14 Unspecified NONE
2111995-03-31 13:49PSTYes???USGS-7560013.08 Unspecified NONE
2101995-03-31 13:43PSTYes???USGS-7010013.02 Unspecified NONE
2091995-03-31 13:37PSTYes???USGS-5850012.96 Unspecified NONE
2081995-03-31 13:26PSTYes???USGS-4470012.84 Unspecified NONE
2071995-03-31 13:21PSTYes???USGS-3390012.78 Unspecified NONE
2061995-03-31 13:09PSTYes???USGS-970012.64 Unspecified NONE
2051995-03-31 13:03PSTYes???USGS-35312.56 Unspecified NONE
2041995-03-31 12:58PSTYes???USGS1340012.47 Unspecified NONE
2031995-03-31 12:52PSTYes???USGS2110012.38 Unspecified NONE
2021995-03-31 12:42PSTYes???USGS4240012.22 Unspecified NONE
2011995-03-31 12:36PSTYes???USGS5270012.12 Unspecified NONE
2001995-03-31 12:24PSTYes???USGS7600011.87 Unspecified NONE
1991995-03-31 12:07PSTYes???USGS9220011.74 Unspecified NONE
1981995-03-31 12:02PSTYes???USGS9890011.69 Unspecified NONE
1971995-03-31 11:56PSTYes???USGS10400011.64 Unspecified NONE
1961995-03-31 11:50PSTYes???USGS10900011.60 Unspecified NONE
1951995-03-31 11:44PSTYes???USGS11400011.56 Unspecified NONE
1941995-03-31 11:38PSTYes???USGS11800011.53 Unspecified NONE
1931995-03-31 11:32PSTYes???USGS12300011.51 Unspecified NONE
1921995-03-31 11:26PSTYes???USGS12300011.49 Unspecified NONE
1911995-03-31 11:20PSTYes???USGS13100011.48 Unspecified NONE
1901995-03-31 11:15PSTYes???USGS13200011.48 Unspecified NONE
1891995-03-31 11:08PSTYes???USGS13600011.47 Unspecified NONE
1881995-03-31 11:01PSTYes???USGS13800011.45 Unspecified NONE
1871995-03-31 10:55PSTYes???USGS14000011.49 Unspecified NONE
1861995-03-31 10:49PSTYes???USGS14300011.50 Unspecified NONE
1851995-03-31 10:42PSTYes???USGS14500011.52 Unspecified NONE
1841995-03-31 10:35PSTYes???USGS14700011.53 Unspecified NONE
1831995-03-31 10:28PSTYes???USGS15000011.55 Unspecified NONE
1821995-03-31 10:21PSTYes???USGS15000011.59 Unspecified NONE
1811995-03-31 10:14PSTYes???USGS15300011.62 Unspecified NONE
1801995-03-31 10:07PSTYes???USGS15300011.65 Unspecified NONE
1791995-03-31 10:00PSTYes???USGS15300011.69 Unspecified NONE
1781995-03-31 09:52PSTYes???USGS15500011.74 Unspecified NONE
1771995-03-31 09:45PSTYes???USGS15700011.78 Unspecified NONE
1761995-03-31 09:38PSTYes???USGS15700011.82 Unspecified NONE
1751995-03-31 09:32PSTYes???USGS15400011.86 Unspecified NONE
1741995-03-30 16:10PSTYes???USGS-5860014.02 Unspecified NONE
1731995-03-30 16:10PSTYes???USGS-5860014.02 Unspecified NONE
1721995-03-30 16:04PSTYes???USGS-6970014.04 Unspecified NONE
1711995-03-30 16:03PSTYes???USGS-6910014.04 Unspecified NONE
1701995-03-30 15:57PSTYes???USGS-7540014.06 Unspecified NONE
1691995-03-30 15:57PSTYes???USGS-7450014.06 Unspecified NONE
1681995-03-30 15:50PSTYes???USGS-8530014.07 Unspecified NONE
1671995-03-30 15:50PSTYes???USGS-8530014.07 Unspecified NONE
1661995-03-30 15:43PSTYes???USGS-9070014.08 Unspecified NONE
1651995-03-30 15:43PSTYes???USGS-8900014.08 Unspecified NONE
1641995-03-30 15:36PSTYes???USGS-9840014.08 Unspecified NONE
1631995-03-30 15:36PSTYes???USGS-9740014.08 Unspecified NONE
1621995-03-30 15:30PSTYes???USGS-10200014.07 Unspecified NONE
1611995-03-30 15:30PSTYes???USGS-10100014.07 Unspecified NONE
1601995-03-30 15:23PSTYes???USGS-10800014.06 Unspecified NONE
1591995-03-30 15:23PSTYes???USGS-10600014.06 Unspecified NONE
1581995-03-30 15:17PSTYes???USGS-11000014.04 Unspecified NONE
1571995-03-30 15:17PSTYes???USGS-10900014.04 Unspecified NONE
1561995-03-30 15:10PSTYes???USGS-11500014.03 Unspecified NONE
1551995-03-30 15:10PSTYes???USGS-11300014.03 Unspecified NONE
1541995-03-30 15:04PSTYes???USGS-11600014.01 Unspecified NONE
1531995-03-30 15:04PSTYes???USGS-11400014.01 Unspecified NONE
1521995-03-30 14:58PSTYes???USGS-12300013.98 Unspecified NONE
1511995-03-30 14:58PSTYes???USGS-12000013.98 Unspecified NONE
1501995-03-30 14:52PSTYes???USGS-12300013.96 Unspecified NONE
1491995-03-30 14:52PSTYes???USGS-12000013.96 Unspecified NONE
1481995-03-17 14:18PSTYes???USGS-9790014.98 Unspecified NONE
1471995-03-17 14:13PSTYes???USGS-9450014.96 Unspecified NONE
1461995-03-17 14:08PSTYes???USGS-8800014.91 Unspecified NONE
1451995-03-17 14:03PSTYes???USGS-8660014.87 Unspecified NONE
1441995-03-17 13:58PSTYes???USGS-7520014.81 Unspecified NONE
1431995-03-17 13:53PSTYes???USGS-7560014.75 Unspecified NONE
1421995-03-17 13:47PSTYes???USGS-6570014.71 Unspecified NONE
1411995-03-17 13:42PSTYes???USGS-5720014.65 Unspecified NONE
1401995-03-17 13:37PSTYes???USGS-5020014.59 Unspecified NONE
1391995-03-17 13:31PSTYes???USGS-4010014.50 Unspecified NONE
1381995-03-17 13:26PSTYes???USGS-3300014.45 Unspecified NONE
1371995-03-17 13:19PSTYes???USGS-1780014.36 Unspecified NONE
1361995-03-17 13:14PSTYes???USGS-758014.30 Unspecified NONE
1351995-03-17 13:09PSTYes???USGS482014.21 Unspecified NONE
1341995-03-17 13:03PSTYes???USGS1300014.15 Unspecified NONE
1331995-03-17 12:58PSTYes???USGS2470014.09 Unspecified NONE
1321995-03-17 12:53PSTYes???USGS3210014.01 Unspecified NONE
1311995-03-17 12:47PSTYes???USGS4410013.94 Unspecified NONE
1301995-03-17 12:41PSTYes???USGS5210013.86 Unspecified NONE
1291995-03-17 12:34PSTYes???USGS6490013.77 Unspecified NONE
1281995-03-17 12:28PSTYes???USGS7200013.71 Unspecified NONE
1271995-03-17 12:20PSTYes???USGS8370013.63 Unspecified NONE
1261995-03-17 12:14PSTYes???USGS8910013.57 Unspecified NONE
1251995-03-17 12:07PSTYes???USGS9650013.50 Unspecified NONE
1241995-03-17 12:01PSTYes???USGS10400013.44 Unspecified NONE
1231995-03-17 11:53PSTYes???USGS11200013.39 Unspecified NONE
1221995-03-17 11:47PSTYes???USGS11400013.35 Unspecified NONE
1211995-03-17 11:39PSTYes???USGS12200013.31 Unspecified NONE
1201995-03-17 11:34PSTYes???USGS12200013.29 Unspecified NONE
1191995-03-17 11:27PSTYes???USGS12800013.26 Unspecified NONE
1181995-03-17 11:19PSTYes???USGS13400013.22 Unspecified NONE
1171995-03-17 11:10PSTYes???USGS13800013.19 Unspecified NONE
1161995-03-17 11:04PSTYes???USGS14100013.19 Unspecified NONE
1151995-03-17 10:57PSTYes???USGS14400013.20 Unspecified NONE
1141995-03-17 10:51PSTYes???USGS14500013.19 Unspecified NONE
1131995-03-17 10:45PSTYes???USGS14500013.20 Unspecified NONE
1121995-03-17 10:13PSTYes???USGS15400013.22 Unspecified NONE
1111995-03-17 10:04PSTYes???USGS15800013.15 Unspecified NONE
1101995-03-17 09:58PSTYes???USGS16000013.28 Unspecified NONE
1091995-03-17 09:50PSTYes???USGS15900013.30 Unspecified NONE
1081995-03-17 09:44PSTYes???USGS16400013.31 Unspecified NONE
1071995-03-17 09:38PSTYes???USGS16400013.34 Unspecified NONE
1061995-03-17 09:31PSTYes???USGS16400013.36 Unspecified NONE
1051995-03-17 09:22PSTYes???USGS16800013.41 Unspecified NONE
1041995-03-17 09:15PSTYes???USGS16800013.45 Unspecified NONE
1031995-03-17 09:07PSTYes???USGS16700013.49 Unspecified NONE
1021995-03-17 09:02PSTYes???USGS16800013.52 Unspecified NONE
1011995-03-17 08:55PSTYes???USGS16700013.57 Unspecified NONE
1001995-03-17 08:48PSTYes???USGS16700013.61 Unspecified NONE
991995-03-17 08:40PSTYes???USGS17400013.65 Unspecified NONE
981995-03-17 08:33PSTYes???USGS16900013.69 Unspecified NONE
971995-03-17 08:25PSTYes???USGS16700013.74 Unspecified NONE
961995-03-17 08:19PSTYes???USGS16800013.78 Unspecified NONE
951995-03-17 08:13PSTYes???USGS16700013.83 Unspecified NONE
941995-03-17 08:05PSTYes???USGS16600013.88 Unspecified NONE
931995-03-17 07:56PSTYes???USGS16800013.96 Unspecified NONE
921995-03-17 07:49PSTYes???USGS16800014.01 Unspecified NONE
911995-03-17 07:41PSTYes???USGS16300014.06 Unspecified NONE
901995-03-17 07:36PSTYes???USGS16500014.10 Unspecified NONE
891995-03-16 12:22PSTYes???USGS923014.27 Unspecified NONE
881995-03-16 12:15PSTYes???USGS2260014.19 Unspecified NONE
871995-03-16 12:07PSTYes???USGS3330014.10 Unspecified NONE
861995-03-16 12:01PSTYes???USGS4550014.02 Unspecified NONE
851995-03-16 11:52PSTYes???USGS5760013.91 Unspecified NONE
841995-03-16 11:42PSTYes???USGS6970013.82 Unspecified NONE
831995-03-16 11:36PSTYes???USGS7910013.76 Unspecified NONE
821995-03-16 11:26PSTYes???USGS8930013.67 Unspecified NONE
811995-03-16 11:20PSTYes???USGS9450013.62 Unspecified NONE
801995-03-16 11:13PSTYes???USGS10100013.56 Unspecified NONE
791995-03-16 11:06PSTYes???USGS10600013.51 Unspecified NONE
781995-03-16 10:57PSTYes???USGS11500013.47 Unspecified NONE
771995-03-16 10:50PSTYes???USGS11800013.43 Unspecified NONE
761995-03-16 10:38PSTYes???USGS12400013.39 Unspecified NONE
751995-03-15 13:25PSTYes???USGS-8800015.16 Unspecified NONE
741995-03-15 13:19PSTYes???USGS-8390015.13 Unspecified NONE
731995-03-15 13:13PSTYes???USGS-7680015.12 Unspecified NONE
721995-03-15 13:01PSTYes???USGS-7800015.07 Unspecified NONE
711995-03-15 12:55PSTYes???USGS-7320015.01 Unspecified NONE
701995-03-15 12:46PSTYes???USGS-6570014.95 Unspecified NONE
691995-03-15 12:40PSTYes???USGS-5770014.90 Unspecified NONE
681995-03-15 12:28PSTYes???USGS-4260014.80 Unspecified NONE
671995-03-15 12:20PSTYes???USGS-3700014.72 Unspecified NONE
661995-03-15 12:12PSTYes???USGS-2810014.63 Unspecified NONE
651995-03-15 12:00PSTYes???USGS-960014.52 Unspecified NONE
641995-03-15 11:52PSTYes???USGS392014.44 Unspecified NONE
631995-03-15 11:38PSTYes???USGS2390014.30 Unspecified NONE
621995-03-15 11:27PSTYes???USGS4080014.18 Unspecified NONE
611995-03-15 11:17PSTYes???USGS5270014.07 Unspecified NONE
601995-03-15 11:06PSTYes???USGS6710013.97 Unspecified NONE
591995-03-15 10:58PSTYes???USGS7520013.90 Unspecified NONE
581995-03-15 10:49PSTYes???USGS8560013.82 Unspecified NONE
571995-03-15 10:42PSTYes???USGS9230013.76 Unspecified NONE
561995-03-01 11:57PSTYes???USGS-4670012.19 Unspecified NONE
551995-03-01 11:50PSTYes???USGS-4040012.11 Unspecified NONE
541995-03-01 11:43PSTYes???USGS-2260012.01 Unspecified NONE
531995-03-01 11:36PSTYes???USGS-899011.91 Unspecified NONE
521995-03-01 11:29PSTYes???USGS396011.81 Unspecified NONE
511995-03-01 11:22PSTYes???USGS1950011.69 Unspecified NONE
501995-03-01 11:16PSTYes???USGS3110011.60 Unspecified NONE
491995-03-01 11:09PSTYes???USGS4400011.49 Unspecified NONE
481995-03-01 11:02PSTYes???USGS5450011.38 Unspecified NONE
471995-03-01 10:54PSTYes???USGS6560011.30 Unspecified NONE
461995-03-01 10:47PSTYes???USGS7560011.23 Unspecified NONE
451995-03-01 10:39PSTYes???USGS8220011.17 Unspecified NONE
441995-03-01 10:31PSTYes???USGS9080011.12 Unspecified NONE
431995-03-01 10:23PSTYes???USGS9740011.10 Unspecified NONE
421995-03-01 10:14PSTYes???USGS10600011.08 Unspecified NONE
411995-03-01 10:06PSTYes???USGS10900011.07 Unspecified NONE
401995-03-01 09:58PSTYes???USGS11300011.08 Unspecified NONE
391995-03-01 09:49PSTYes???USGS11300011.10 Unspecified NONE
381995-03-01 09:40PSTYes???USGS12100011.12 Unspecified NONE
371995-03-01 09:31PSTYes???USGS12300011.16 Unspecified NONE
361995-03-01 09:22PSTYes???USGS12500011.20 Unspecified NONE
351995-03-01 09:14PSTYes???USGS12700011.24 Unspecified NONE
341995-02-28 15:54PSTYes???USGS-6500013.73 Unspecified NONE
331995-02-28 15:48PSTYes???USGS-7500013.63 Unspecified NONE
321995-02-28 15:37PSTYes???USGS-8800013.86 Unspecified NONE
311995-02-28 15:29PSTYes???USGS-9640013.89 Unspecified NONE
301995-02-28 15:23PSTYes???USGS-10400013.87 Unspecified NONE
291995-02-28 15:16PSTYes???USGS-11000013.89 Unspecified NONE
281995-02-28 15:10PSTYes???USGS-11700013.89 Unspecified NONE
271995-02-28 15:04PSTYes???USGS-12100013.89 Unspecified NONE
261995-02-28 14:58PSTYes???USGS-12600013.88 Unspecified NONE
251995-02-28 14:51PSTYes???USGS-13000013.85 Unspecified NONE
241995-02-28 14:43PSTYes???USGS-13700013.84 Unspecified NONE
231995-02-28 14:36PSTYes???USGS-14000013.81 Unspecified NONE
221995-02-28 14:28PSTYes???USGS-14300013.78 Unspecified NONE
211995-02-28 14:21PSTYes???USGS-14600013.74 Unspecified NONE
201995-02-28 13:48PSTYes???USGS-15500013.53 Unspecified NONE
191995-02-28 13:40PSTYes???USGS-15500013.48 Unspecified NONE
181995-02-28 13:33PSTYes???USGS-15600013.42 Unspecified NONE
171995-02-28 13:25PSTYes???USGS-15400013.36 Unspecified NONE
161995-02-28 13:13PSTYes???USGS-15500013.27 Unspecified NONE
151995-02-28 13:01PSTYes???USGS-15200013.17 Unspecified NONE
141995-01-20 13:18PSTYes???USGS6850012.39 Unspecified NONE
131995-01-20 13:08PSTYes???USGS7820012.34 Unspecified NONE
121995-01-20 12:58PSTYes???USGS8340012.30 Unspecified NONE
111995-01-20 12:47PSTYes???USGS9050012.29 Unspecified NONE
101995-01-20 12:37PSTYes???USGS9810012.27 Unspecified NONE
91995-01-20 12:27PSTYes???USGS10100012.27 Unspecified NONE
81995-01-20 12:17PSTYes???USGS10600012.28 Unspecified NONE
71995-01-20 12:08PSTYes???USGS10700012.30 Unspecified NONE
61995-01-20 11:10PSTYes???USGS11900012.57 Unspecified NONE
51995-01-20 10:57PSTYes???USGS12000012.61 Unspecified NONE
41995-01-19 16:17PSTYes???USGS-13300014.07 Unspecified NONE
31995-01-19 16:08PSTYes???USGS-13600014.02 Unspecified NONE
21995-01-19 15:58PSTYes???USGS-13900013.97 Unspecified NONE
11995-01-19 15:50PSTYes???USGS-13800013.94 Unspecified NONE